Observation data for Lomax on 05/24/2020      Previous  Date  Next       Current Mesonet Observations  Soil Data  Daily Summary Page  Observations in Plain Language
KLO1 240500Z 07009G16KT 23/12 A2987 RMK A01 T02320119  RH  049%=      5-min Rain = 0
KLO1 240501Z 08013KT 23/12 A2987 RMK A01 T02330115  RH  047%=      5-min Rain = 0
KLO1 240502Z 06011KT 24/12 A2987 RMK A01 T02370116  RH  047%=      5-min Rain = 0
KLO1 240503Z 05010KT 24/12 A2987 RMK A01 T02350121  RH  049%=      5-min Rain = 0
KLO1 240504Z 06009KT 23/12 A2988 RMK A01 T02300122  RH  051%=      5-min Rain = 0
KLO1 240505Z 05009KT 23/12 A2988 RMK A01 T02260123  RH  052%=      5-min Rain = 0
KLO1 240506Z 05009KT 22/12 A2988 RMK A01 T02240123  RH  053%=      5-min Rain = 0
KLO1 240507Z 05008KT 22/12 A2988 RMK A01 T02220124  RH  054%=      5-min Rain = 0
KLO1 240508Z 05006KT 22/12 A2988 RMK A01 T02200124  RH  054%=      5-min Rain = 0
KLO1 240509Z 04006KT 22/12 A2988 RMK A01 T02190124  RH  055%=      5-min Rain = 0
KLO1 240510Z 05005KT 22/13 A2988 RMK A01 T02180125  RH  056%=      5-min Rain = 0
KLO1 240511Z 05007KT 22/13 A2988 RMK A01 T02160125  RH  056%=      5-min Rain = 0
KLO1 240512Z 05007KT 22/12 A2988 RMK A01 T02150124  RH  056%=      5-min Rain = 0
KLO1 240513Z 04006KT 22/12 A2988 RMK A01 T02160124  RH  056%=      5-min Rain = 0
KLO1 240514Z 04007KT 22/12 A2988 RMK A01 T02150124  RH  056%=      5-min Rain = 0
KLO1 240515Z 03008KT 22/13 A2988 RMK A01 T02150125  RH  056%=      5-min Rain = 0
KLO1 240516Z 04009KT 21/12 A2988 RMK A01 T02140124  RH  056%=      5-min Rain = 0
KLO1 240517Z 04010KT 21/12 A2988 RMK A01 T02140124  RH  057%=      5-min Rain = 0
KLO1 240518Z 04009KT 21/12 A2988 RMK A01 T02130124  RH  057%=      5-min Rain = 0
KLO1 240519Z 05010KT 21/12 A2988 RMK A01 T02130124  RH  057%=      5-min Rain = 0
KLO1 240520Z 06010KT 21/12 A2988 RMK A01 T02130123  RH  057%=      5-min Rain = 0
KLO1 240521Z 06009KT 21/12 A2988 RMK A01 T02130123  RH  057%=      5-min Rain = 0
KLO1 240522Z 07008KT 21/12 A2988 RMK A01 T02130123  RH  057%=      5-min Rain = 0
KLO1 240523Z 07006KT 21/12 A2988 RMK A01 T02120123  RH  057%=      5-min Rain = 0
KLO1 240524Z 07007KT 21/12 A2988 RMK A01 T02110123  RH  057%=      5-min Rain = 0
KLO1 240525Z 06008KT 21/12 A2988 RMK A01 T02110123  RH  057%=      5-min Rain = 0
KLO1 240526Z 07009KT 21/12 A2988 RMK A01 T02100123  RH  057%=      5-min Rain = 0
KLO1 240527Z 07007KT 21/12 A2988 RMK A01 T02100123  RH  057%=      5-min Rain = 0
KLO1 240528Z 07007KT 21/12 A2988 RMK A01 T02100123  RH  057%=      5-min Rain = 0
KLO1 240529Z 07008KT 21/12 A2988 RMK A01 T02100123  RH  057%=      5-min Rain = 0
KLO1 240530Z 07006KT 21/12 A2988 RMK A01 T02090123  RH  058%=      5-min Rain = 0
KLO1 240531Z 07007KT 21/12 A2988 RMK A01 T02090123  RH  058%=      5-min Rain = 0
KLO1 240532Z 06008KT 21/12 A2988 RMK A01 T02090123  RH  058%=      5-min Rain = 0
KLO1 240533Z 07008KT 21/12 A2988 RMK A01 T02090123  RH  058%=      5-min Rain = 0
KLO1 240534Z 08010KT 21/12 A2988 RMK A01 T02090123  RH  058%=      5-min Rain = 0
KLO1 240535Z 08009KT 21/12 A2988 RMK A01 T02090123  RH  058%=      5-min Rain = 0
KLO1 240536Z 07008KT 21/12 A2988 RMK A01 T02090123  RH  058%=      5-min Rain = 0
KLO1 240537Z 08007KT 21/12 A2988 RMK A01 T02080123  RH  058%=      5-min Rain = 0
KLO1 240538Z 08010G15KT 21/12 A2988 RMK A01 T02080123  RH  058%=      5-min Rain = 0
KLO1 240539Z 08010KT 21/12 A2989 RMK A01 T02080123  RH  058%=      5-min Rain = 0
KLO1 240540Z 07009KT 21/12 A2989 RMK A01 T02080123  RH  058%=      5-min Rain = 0
KLO1 240541Z 08010KT 21/12 A2989 RMK A01 T02080123  RH  058%=      5-min Rain = 0
KLO1 240542Z 08011KT 21/12 A2989 RMK A01 T02070123  RH  058%=      5-min Rain = 0
KLO1 240543Z 08008KT 21/12 A2989 RMK A01 T02070123  RH  059%=      5-min Rain = 0
KLO1 240544Z 08009KT 21/12 A2989 RMK A01 T02070123  RH  059%=      5-min Rain = 0
KLO1 240545Z 08009KT 21/12 A2989 RMK A01 T02070124  RH  059%=      5-min Rain = 0
KLO1 240546Z 08009KT 21/12 A2989 RMK A01 T02060123  RH  059%=      5-min Rain = 0
KLO1 240547Z 09009KT 21/12 A2989 RMK A01 T02060123  RH  059%=      5-min Rain = 0
KLO1 240548Z 09009KT 21/12 A2989 RMK A01 T02060123  RH  059%=      5-min Rain = 0
KLO1 240549Z 09009KT 21/12 A2989 RMK A01 T02060123  RH  059%=      5-min Rain = 0
KLO1 240550Z 09010KT 21/12 A2989 RMK A01 T02060123  RH  059%=      5-min Rain = 0
KLO1 240551Z 10009KT 21/12 A2989 RMK A01 T02060123  RH  059%=      5-min Rain = 0
KLO1 240552Z 10008KT 21/12 A2989 RMK A01 T02060123  RH  059%=      5-min Rain = 0
KLO1 240553Z 10009KT 21/12 A2989 RMK A01 T02060122  RH  059%=      5-min Rain = 0
KLO1 240554Z 11007KT 21/12 A2989 RMK A01 T02060122  RH  059%=      5-min Rain = 0
KLO1 240555Z 11007KT 21/12 A2989 RMK A01 T02050122  RH  059%=      5-min Rain = 0
KLO1 240556Z 11008KT 21/12 A2989 RMK A01 T02050122  RH  059%=      5-min Rain = 0
KLO1 240557Z 11007KT 21/12 A2989 RMK A01 T02050122  RH  059%=      5-min Rain = 0
KLO1 240558Z 11007KT 21/12 A2989 RMK A01 T02050122  RH  059%=      5-min Rain = 0
KLO1 240559Z 12007KT 21/12 A2989 RMK A01 T02050121  RH  059%=      5-min Rain = 0
KLO1 240600Z 12005KT 21/12 A2989 RMK A01 T02050121  RH  059%=      5-min Rain = 0
KLO1 240601Z 11005KT 21/12 A2989 RMK A01 T02050122  RH  059%=      5-min Rain = 0
KLO1 240602Z 11005KT 21/12 A2988 RMK A01 T02050121  RH  059%=      5-min Rain = 0
KLO1 240603Z 12005KT 21/12 A2988 RMK A01 T02050121  RH  059%=      5-min Rain = 0
KLO1 240604Z 12005KT 21/12 A2988 RMK A01 T02050121  RH  059%=      5-min Rain = 0
KLO1 240605Z 12004KT 20/12 A2988 RMK A01 T02040121  RH  059%=      5-min Rain = 0
KLO1 240606Z 11004KT 20/12 A2988 RMK A01 T02040121  RH  059%=      5-min Rain = 0
KLO1 240607Z 13003KT 20/12 A2988 RMK A01 T02040121  RH  059%=      5-min Rain = 0
KLO1 240608Z 14003KT 20/12 A2988 RMK A01 T02040120  RH  059%=      5-min Rain = 0
KLO1 240609Z 14004KT 20/12 A2988 RMK A01 T02030120  RH  059%=      5-min Rain = 0
KLO1 240610Z 13004KT 20/12 A2988 RMK A01 T02030119  RH  059%=      5-min Rain = 0
KLO1 240611Z 13004KT 20/12 A2988 RMK A01 T02020119  RH  059%=      5-min Rain = 0
KLO1 240612Z 13004KT 20/12 A2988 RMK A01 T02020119  RH  059%=      5-min Rain = 0
KLO1 240613Z 14004KT 20/12 A2988 RMK A01 T02020119  RH  059%=      5-min Rain = 0
KLO1 240614Z 13005KT 20/12 A2988 RMK A01 T02020119  RH  059%=      5-min Rain = 0
KLO1 240615Z 12005KT 20/12 A2988 RMK A01 T02020119  RH  059%=      5-min Rain = 0
KLO1 240616Z 12006KT 20/12 A2988 RMK A01 T02020119  RH  059%=      5-min Rain = 0
KLO1 240617Z 12006KT 20/12 A2987 RMK A01 T02020119  RH  059%=      5-min Rain = 0
KLO1 240618Z 12005KT 20/12 A2987 RMK A01 T02020120  RH  059%=      5-min Rain = 0
KLO1 240619Z 12005KT 20/12 A2987 RMK A01 T02020119  RH  059%=      5-min Rain = 0
KLO1 240620Z 12004KT 20/12 A2987 RMK A01 T02020119  RH  059%=      5-min Rain = 0
KLO1 240621Z 14003KT 20/12 A2987 RMK A01 T02020119  RH  059%=      5-min Rain = 0
KLO1 240622Z 14003KT 20/12 A2987 RMK A01 T02020119  RH  059%=      5-min Rain = 0
KLO1 240623Z 13003KT 20/12 A2987 RMK A01 T02010119  RH  059%=      5-min Rain = 0
KLO1 240624Z 12004KT 20/12 A2987 RMK A01 T02010119  RH  059%=      5-min Rain = 0
KLO1 240625Z 13004KT 20/12 A2987 RMK A01 T02010119  RH  059%=      5-min Rain = 0
KLO1 240626Z 12004KT 20/12 A2987 RMK A01 T02000119  RH  059%=      5-min Rain = 0
KLO1 240627Z 11004KT 20/12 A2987 RMK A01 T02000120  RH  060%=      5-min Rain = 0
KLO1 240628Z 10005KT 20/12 A2987 RMK A01 T02000120  RH  060%=      5-min Rain = 0
KLO1 240629Z 10005KT 20/12 A2987 RMK A01 T02000120  RH  060%=      5-min Rain = 0
KLO1 240630Z 10005KT 20/12 A2987 RMK A01 T01990120  RH  060%=      5-min Rain = 0
KLO1 240631Z 09004KT 20/12 A2987 RMK A01 T01990120  RH  061%=      5-min Rain = 0
KLO1 240632Z 08004KT 20/12 A2987 RMK A01 T01980120  RH  061%=      5-min Rain = 0
KLO1 240633Z 08004KT 20/12 A2987 RMK A01 T01980121  RH  061%=      5-min Rain = 0
KLO1 240634Z 08005KT 20/12 A2987 RMK A01 T01980122  RH  062%=      5-min Rain = 0
KLO1 240635Z 08005KT 20/12 A2987 RMK A01 T01970122  RH  062%=      5-min Rain = 0
KLO1 240636Z 08006KT 20/12 A2987 RMK A01 T01970122  RH  062%=      5-min Rain = 0
KLO1 240637Z 08005KT 20/12 A2986 RMK A01 T01970122  RH  062%=      5-min Rain = 0
KLO1 240638Z 07005KT 20/12 A2986 RMK A01 T01970123  RH  062%=      5-min Rain = 0
KLO1 240639Z 07005KT 20/12 A2986 RMK A01 T01960123  RH  062%=      5-min Rain = 0
KLO1 240640Z 08004KT 20/12 A2986 RMK A01 T01960123  RH  063%=      5-min Rain = 0
KLO1 240641Z 09005KT 20/12 A2986 RMK A01 T01960123  RH  063%=      5-min Rain = 0
KLO1 240642Z 11005KT 20/12 A2986 RMK A01 T01960123  RH  062%=      5-min Rain = 0
KLO1 240643Z 10005KT 20/12 A2986 RMK A01 T01970122  RH  062%=      5-min Rain = 0
KLO1 240644Z 11004KT 20/12 A2986 RMK A01 T01970122  RH  062%=      5-min Rain = 0
KLO1 240645Z 10005KT 20/12 A2986 RMK A01 T01970121  RH  062%=      5-min Rain = 0
KLO1 240646Z 10005KT 20/12 A2986 RMK A01 T01970122  RH  062%=      5-min Rain = 0
KLO1 240647Z 10005KT 20/12 A2986 RMK A01 T01980122  RH  062%=      5-min Rain = 0
KLO1 240648Z 09006KT 20/12 A2986 RMK A01 T01980122  RH  061%=      5-min Rain = 0
KLO1 240649Z 09007KT 20/12 A2986 RMK A01 T01990122  RH  061%=      5-min Rain = 0
KLO1 240650Z 08008KT 20/12 A2986 RMK A01 T01990122  RH  061%=      5-min Rain = 0
KLO1 240651Z 08007KT 20/12 A2986 RMK A01 T02000122  RH  061%=      5-min Rain = 0
KLO1 240652Z 08006KT 20/12 A2986 RMK A01 T02000122  RH  061%=      5-min Rain = 0
KLO1 240653Z 08006KT 20/12 A2986 RMK A01 T02000123  RH  061%=      5-min Rain = 0
KLO1 240654Z 08004KT 20/12 A2986 RMK A01 T01990122  RH  061%=      5-min Rain = 0
KLO1 240655Z 08005KT 20/12 A2986 RMK A01 T02000122  RH  061%=      5-min Rain = 0
KLO1 240656Z 09006KT 20/12 A2986 RMK A01 T02000122  RH  061%=      5-min Rain = 0
KLO1 240657Z 10004KT 20/12 A2986 RMK A01 T02000122  RH  061%=      5-min Rain = 0
KLO1 240658Z 07004KT 20/12 A2986 RMK A01 T02000122  RH  061%=      5-min Rain = 0
KLO1 240659Z 07005KT 20/12 A2986 RMK A01 T02010123  RH  061%=      5-min Rain = 0
KLO1 240700Z 07006KT 20/12 A2986 RMK A01 T02010123  RH  061%=      5-min Rain = 0
KLO1 240701Z 07004KT 20/12 A2986 RMK A01 T02010123  RH  061%=      5-min Rain = 0
KLO1 240702Z 08005KT 20/12 A2986 RMK A01 T02010123  RH  061%=      5-min Rain = 0
KLO1 240703Z 09006KT 20/12 A2986 RMK A01 T02000123  RH  061%=      5-min Rain = 0
KLO1 240704Z 08005KT 20/12 A2986 RMK A01 T01990123  RH  061%=      5-min Rain = 0
KLO1 240705Z 08006KT 20/12 A2986 RMK A01 T01990122  RH  061%=      5-min Rain = 0
KLO1 240706Z 09006KT 20/12 A2986 RMK A01 T01990123  RH  061%=      5-min Rain = 0
KLO1 240707Z 08007KT 20/12 A2986 RMK A01 T02000122  RH  061%=      5-min Rain = 0
KLO1 240708Z 08006KT 20/12 A2986 RMK A01 T02010122  RH  060%=      5-min Rain = 0
KLO1 240709Z 07005KT 20/12 A2986 RMK A01 T02020122  RH  060%=      5-min Rain = 0
KLO1 240710Z 09006KT 20/12 A2986 RMK A01 T02020122  RH  060%=      5-min Rain = 0
KLO1 240711Z 10009KT 20/12 A2986 RMK A01 T02020121  RH  060%=      5-min Rain = 0
KLO1 240712Z 11009KT 21/12 A2986 RMK A01 T02050121  RH  058%=      5-min Rain = 0
KLO1 240713Z 11008KT 21/12 A2986 RMK A01 T02080121  RH  058%=      5-min Rain = 0
KLO1 240714Z 11006KT 21/12 A2986 RMK A01 T02090121  RH  057%=      5-min Rain = 0
KLO1 240715Z 11007KT 21/12 A2986 RMK A01 T02090121  RH  057%=      5-min Rain = 0
KLO1 240716Z 11007KT 21/12 A2986 RMK A01 T02080121  RH  057%=      5-min Rain = 0
KLO1 240717Z 11006KT 21/12 A2986 RMK A01 T02070121  RH  058%=      5-min Rain = 0
KLO1 240718Z 12006KT 21/12 A2986 RMK A01 T02050121  RH  058%=      5-min Rain = 0
KLO1 240719Z 12006KT 20/12 A2986 RMK A01 T02040121  RH  059%=      5-min Rain = 0
KLO1 240720Z 12006KT 20/12 A2986 RMK A01 T02020121  RH  059%=      5-min Rain = 0
KLO1 240721Z 13006KT 20/12 A2986 RMK A01 T02010121  RH  060%=      5-min Rain = 0
KLO1 240722Z 12006KT 20/12 A2986 RMK A01 T02000121  RH  060%=      5-min Rain = 0
KLO1 240723Z 13006KT 20/12 A2986 RMK A01 T01990121  RH  060%=      5-min Rain = 0
KLO1 240724Z 13005KT 20/12 A2986 RMK A01 T01990121  RH  061%=      5-min Rain = 0
KLO1 240725Z 13005KT 20/12 A2986 RMK A01 T01980121  RH  061%=      5-min Rain = 0
KLO1 240726Z 14006KT 20/12 A2986 RMK A01 T01980121  RH  061%=      5-min Rain = 0
KLO1 240727Z 15005KT 20/12 A2986 RMK A01 T01980121  RH  061%=      5-min Rain = 0
KLO1 240728Z 15005KT 20/12 A2986 RMK A01 T01970121  RH  061%=      5-min Rain = 0
KLO1 240729Z 16006KT 20/12 A2986 RMK A01 T01970121  RH  061%=      5-min Rain = 0
KLO1 240730Z 16007KT 20/12 A2986 RMK A01 T01970121  RH  061%=      5-min Rain = 0
KLO1 240731Z 16008KT 20/12 A2986 RMK A01 T01960120  RH  061%=      5-min Rain = 0
KLO1 240732Z 16009KT 20/12 A2986 RMK A01 T01970120  RH  061%=      5-min Rain = 0
KLO1 240733Z 17008KT 20/12 A2986 RMK A01 T01980120  RH  061%=      5-min Rain = 0
KLO1 240734Z 16009KT 20/12 A2986 RMK A01 T01990120  RH  060%=      5-min Rain = 0
KLO1 240735Z 16009KT 20/12 A2986 RMK A01 T02020120  RH  059%=      5-min Rain = 0
KLO1 240736Z 15010KT 21/12 A2986 RMK A01 T02050121  RH  058%=      5-min Rain = 0
KLO1 240737Z 15010KT 21/12 A2986 RMK A01 T02080121  RH  058%=      5-min Rain = 0
KLO1 240738Z 16010KT 21/12 A2986 RMK A01 T02090121  RH  057%=      5-min Rain = 0
KLO1 240739Z 16010KT 21/12 A2986 RMK A01 T02100121  RH  057%=      5-min Rain = 0
KLO1 240740Z 16011KT 21/12 A2986 RMK A01 T02100120  RH  056%=      5-min Rain = 0
KLO1 240741Z 16010KT 21/12 A2986 RMK A01 T02130120  RH  055%=      5-min Rain = 0
KLO1 240742Z 16010KT 21/12 A2986 RMK A01 T02140121  RH  055%=      5-min Rain = 0
KLO1 240743Z 15009KT 21/12 A2986 RMK A01 T02140120  RH  055%=      5-min Rain = 0
KLO1 240744Z 16010KT 21/12 A2986 RMK A01 T02140120  RH  055%=      5-min Rain = 0
KLO1 240745Z 16012KT 21/12 A2986 RMK A01 T02140119  RH  055%=      5-min Rain = 0
KLO1 240746Z 16014KT 22/12 A2986 RMK A01 T02170117  RH  053%=      5-min Rain = 0
KLO1 240747Z 16014G19KT 22/12 A2986 RMK A01 T02200118  RH  052%=      5-min Rain = 0
KLO1 240748Z 16012KT 22/12 A2985 RMK A01 T02220117  RH  051%=      5-min Rain = 0
KLO1 240749Z 16012KT 22/12 A2985 RMK A01 T02230116  RH  051%=      5-min Rain = 0
KLO1 240750Z 16014KT 22/11 A2985 RMK A01 T02240114  RH  050%=      5-min Rain = 0
KLO1 240751Z 17015KT 23/11 A2985 RMK A01 T02260113  RH  049%=      5-min Rain = 0
KLO1 240752Z 16013KT 23/11 A2985 RMK A01 T02270113  RH  049%=      5-min Rain = 0
KLO1 240753Z 16013KT 23/11 A2985 RMK A01 T02260112  RH  048%=      5-min Rain = 0
KLO1 240754Z 16013KT 23/11 A2985 RMK A01 T02260112  RH  048%=      5-min Rain = 0
KLO1 240755Z 16011KT 23/11 A2985 RMK A01 T02260113  RH  049%=      5-min Rain = 0
KLO1 240756Z 15012KT 23/11 A2985 RMK A01 T02250112  RH  049%=      5-min Rain = 0
KLO1 240757Z 15012KT 23/11 A2985 RMK A01 T02250112  RH  049%=      5-min Rain = 0
KLO1 240758Z 16014KT 22/11 A2985 RMK A01 T02240112  RH  049%=      5-min Rain = 0
KLO1 240759Z 16015KT 22/11 A2985 RMK A01 T02240111  RH  049%=      5-min Rain = 0
KLO1 240800Z 16014KT 23/11 A2985 RMK A01 T02250110  RH  048%=      5-min Rain = 0
KLO1 240801Z 16014KT 23/11 A2985 RMK A01 T02250110  RH  048%=      5-min Rain = 0
KLO1 240802Z 17013KT 23/11 A2985 RMK A01 T02250110  RH  048%=      5-min Rain = 0
KLO1 240803Z 16012KT 23/11 A2985 RMK A01 T02250110  RH  048%=      5-min Rain = 0
KLO1 240804Z 16012KT 22/11 A2985 RMK A01 T02240110  RH  048%=      5-min Rain = 0
KLO1 240805Z 16012KT 22/11 A2985 RMK A01 T02240110  RH  049%=      5-min Rain = 0
KLO1 240806Z 16012KT 22/11 A2986 RMK A01 T02230110  RH  049%=      5-min Rain = 0
KLO1 240807Z 16012KT 22/11 A2986 RMK A01 T02220111  RH  049%=      5-min Rain = 0
KLO1 240808Z 16012KT 22/11 A2985 RMK A01 T02210111  RH  050%=      5-min Rain = 0
KLO1 240809Z 15014KT 22/11 A2985 RMK A01 T02210111  RH  050%=      5-min Rain = 0
KLO1 240810Z 15013KT 22/11 A2985 RMK A01 T02210111  RH  050%=      5-min Rain = 0
KLO1 240811Z 15016G21KT 22/11 A2985 RMK A01 T02210111  RH  050%=      5-min Rain = 0
KLO1 240812Z 15021KT 22/11 A2985 RMK A01 T02220110  RH  049%=      5-min Rain = 0
KLO1 240813Z 16019KT 22/11 A2985 RMK A01 T02230110  RH  049%=      5-min Rain = 0
KLO1 240814Z 16018KT 22/11 A2985 RMK A01 T02230110  RH  049%=      5-min Rain = 0
KLO1 240815Z 16019KT 22/11 A2985 RMK A01 T02230110  RH  049%=      5-min Rain = 0
KLO1 240816Z 16015KT 22/11 A2985 RMK A01 T02230111  RH  049%=      5-min Rain = 0
KLO1 240817Z 16014KT 22/11 A2985 RMK A01 T02210111  RH  050%=      5-min Rain = 0
KLO1 240818Z 16013KT 22/11 A2985 RMK A01 T02200111  RH  050%=      5-min Rain = 0
KLO1 240819Z 15013KT 22/11 A2984 RMK A01 T02200111  RH  050%=      5-min Rain = 0
KLO1 240820Z 16013KT 22/11 A2984 RMK A01 T02190112  RH  050%=      5-min Rain = 0
KLO1 240821Z 16012KT 22/11 A2984 RMK A01 T02190112  RH  051%=      5-min Rain = 0
KLO1 240822Z 15011KT 22/11 A2984 RMK A01 T02180112  RH  051%=      5-min Rain = 0
KLO1 240823Z 15010KT 22/11 A2985 RMK A01 T02170113  RH  051%=      5-min Rain = 0
KLO1 240824Z 15010KT 22/11 A2985 RMK A01 T02160113  RH  052%=      5-min Rain = 0
KLO1 240825Z 15010KT 22/11 A2984 RMK A01 T02150113  RH  052%=      5-min Rain = 0
KLO1 240826Z 14010KT 22/11 A2984 RMK A01 T02150113  RH  052%=      5-min Rain = 0
KLO1 240827Z 14010KT 21/11 A2984 RMK A01 T02140113  RH  052%=      5-min Rain = 0
KLO1 240828Z 14011KT 21/11 A2984 RMK A01 T02140113  RH  053%=      5-min Rain = 0
KLO1 240829Z 14010KT 21/11 A2985 RMK A01 T02140113  RH  053%=      5-min Rain = 0
KLO1 240830Z 14009KT 21/11 A2984 RMK A01 T02130113  RH  053%=      5-min Rain = 0
KLO1 240831Z 14010KT 21/11 A2984 RMK A01 T02120113  RH  053%=      5-min Rain = 0
KLO1 240832Z 14011KT 21/11 A2984 RMK A01 T02120113  RH  053%=      5-min Rain = 0
KLO1 240833Z 13011KT 21/11 A2984 RMK A01 T02120114  RH  053%=      5-min Rain = 0
KLO1 240834Z 14010KT 21/11 A2984 RMK A01 T02120113  RH  053%=      5-min Rain = 0
KLO1 240835Z 14010KT 21/11 A2984 RMK A01 T02110113  RH  054%=      5-min Rain = 0
KLO1 240836Z 14010KT 21/11 A2984 RMK A01 T02110114  RH  054%=      5-min Rain = 0
KLO1 240837Z 14010KT 21/11 A2984 RMK A01 T02110114  RH  054%=      5-min Rain = 0
KLO1 240838Z 14009KT 21/11 A2984 RMK A01 T02100114  RH  054%=      5-min Rain = 0
KLO1 240839Z 14010KT 21/11 A2984 RMK A01 T02100113  RH  054%=      5-min Rain = 0
KLO1 240840Z 14011KT 21/11 A2984 RMK A01 T02090113  RH  054%=      5-min Rain = 0
KLO1 240841Z 14010KT 21/11 A2984 RMK A01 T02090113  RH  054%=      5-min Rain = 0
KLO1 240842Z 14010KT 21/11 A2984 RMK A01 T02090113  RH  054%=      5-min Rain = 0
KLO1 240843Z 14009KT 21/11 A2984 RMK A01 T02090113  RH  054%=      5-min Rain = 0
KLO1 240844Z 14010KT 21/11 A2984 RMK A01 T02090113  RH  054%=      5-min Rain = 0
KLO1 240845Z 14009KT 21/11 A2984 RMK A01 T02090113  RH  054%=      5-min Rain = 0
KLO1 240846Z 14009KT 21/11 A2984 RMK A01 T02090113  RH  054%=      5-min Rain = 0
KLO1 240847Z 15009KT 21/11 A2984 RMK A01 T02090113  RH  054%=      5-min Rain = 0
KLO1 240848Z 14009KT 21/11 A2984 RMK A01 T02080113  RH  054%=      5-min Rain = 0
KLO1 240849Z 14010KT 21/11 A2984 RMK A01 T02080113  RH  054%=      5-min Rain = 0
KLO1 240850Z 15009KT 21/11 A2984 RMK A01 T02080113  RH  054%=      5-min Rain = 0
KLO1 240851Z 14009KT 21/11 A2984 RMK A01 T02070113  RH  054%=      5-min Rain = 0
KLO1 240852Z 15009KT 21/11 A2984 RMK A01 T02070113  RH  055%=      5-min Rain = 0
KLO1 240853Z 14009KT 21/11 A2984 RMK A01 T02070113  RH  055%=      5-min Rain = 0
KLO1 240854Z 14008KT 21/11 A2984 RMK A01 T02070113  RH  055%=      5-min Rain = 0
KLO1 240855Z 15008KT 21/11 A2984 RMK A01 T02070112  RH  055%=      5-min Rain = 0
KLO1 240856Z 15008KT 21/11 A2984 RMK A01 T02060112  RH  055%=      5-min Rain = 0
KLO1 240857Z 14009KT 21/11 A2984 RMK A01 T02060113  RH  055%=      5-min Rain = 0
KLO1 240858Z 15008KT 21/11 A2984 RMK A01 T02060112  RH  055%=      5-min Rain = 0
KLO1 240859Z 15008KT 21/11 A2984 RMK A01 T02050112  RH  055%=      5-min Rain = 0
KLO1 240900Z 15008KT 21/11 A2984 RMK A01 T02050112  RH  055%=      5-min Rain = 0
KLO1 240901Z 15008KT 20/11 A2984 RMK A01 T02040112  RH  055%=      5-min Rain = 0
KLO1 240902Z 15007KT 20/11 A2984 RMK A01 T02040113  RH  056%=      5-min Rain = 0
KLO1 240903Z 16008KT 20/11 A2984 RMK A01 T02040112  RH  056%=      5-min Rain = 0
KLO1 240904Z 16009KT 20/11 A2984 RMK A01 T02040113  RH  056%=      5-min Rain = 0
KLO1 240905Z 16009KT 20/11 A2984 RMK A01 T02040113  RH  056%=      5-min Rain = 0
KLO1 240906Z 16009KT 20/11 A2984 RMK A01 T02040113  RH  056%=      5-min Rain = 0
KLO1 240907Z 16008KT 21/11 A2984 RMK A01 T02050113  RH  056%=      5-min Rain = 0
KLO1 240908Z 16009KT 21/11 A2984 RMK A01 T02050113  RH  056%=      5-min Rain = 0
KLO1 240909Z 16009KT 21/11 A2984 RMK A01 T02050113  RH  056%=      5-min Rain = 0
KLO1 240910Z 16009KT 21/11 A2984 RMK A01 T02050113  RH  056%=      5-min Rain = 0
KLO1 240911Z 15009KT 21/11 A2984 RMK A01 T02050113  RH  056%=      5-min Rain = 0
KLO1 240912Z 15009KT 21/11 A2984 RMK A01 T02050113  RH  056%=      5-min Rain = 0
KLO1 240913Z 15009KT 21/11 A2985 RMK A01 T02050114  RH  056%=      5-min Rain = 0
KLO1 240914Z 15008KT 20/11 A2985 RMK A01 T02040113  RH  056%=      5-min Rain = 0
KLO1 240915Z 15009KT 20/11 A2985 RMK A01 T02040113  RH  056%=      5-min Rain = 0
KLO1 240916Z 15009KT 20/11 A2985 RMK A01 T02040113  RH  056%=      5-min Rain = 0
KLO1 240917Z 15009KT 20/11 A2985 RMK A01 T02040113  RH  056%=      5-min Rain = 0
KLO1 240918Z 15008KT 20/11 A2985 RMK A01 T02040113  RH  056%=      5-min Rain = 0
KLO1 240919Z 14007KT 20/11 A2985 RMK A01 T02030113  RH  056%=      5-min Rain = 0
KLO1 240920Z 15007KT 20/11 A2985 RMK A01 T02030113  RH  056%=      5-min Rain = 0
KLO1 240921Z 14007KT 20/11 A2985 RMK A01 T02020113  RH  056%=      5-min Rain = 0
KLO1 240922Z 15008KT 20/11 A2985 RMK A01 T02020113  RH  056%=      5-min Rain = 0
KLO1 240923Z 14007KT 20/11 A2985 RMK A01 T02020113  RH  056%=      5-min Rain = 0
KLO1 240924Z 15006KT 20/11 A2985 RMK A01 T02020113  RH  056%=      5-min Rain = 0
KLO1 240925Z 15007KT 20/11 A2985 RMK A01 T02010112  RH  057%=      5-min Rain = 0
KLO1 240926Z 14006KT 20/11 A2985 RMK A01 T02010112  RH  057%=      5-min Rain = 0
KLO1 240927Z 15006KT 20/11 A2985 RMK A01 T02000112  RH  057%=      5-min Rain = 0
KLO1 240928Z 15006KT 20/11 A2985 RMK A01 T02000112  RH  057%=      5-min Rain = 0
KLO1 240929Z 15006KT 20/11 A2985 RMK A01 T02000112  RH  057%=      5-min Rain = 0
KLO1 240930Z 15006KT 20/11 A2985 RMK A01 T02000112  RH  057%=      5-min Rain = 0
KLO1 240931Z 15006KT 20/11 A2985 RMK A01 T02010112  RH  057%=      5-min Rain = 0
KLO1 240932Z 15006KT 20/11 A2985 RMK A01 T02010112  RH  057%=      5-min Rain = 0
KLO1 240933Z 14005KT 20/11 A2986 RMK A01 T02010113  RH  057%=      5-min Rain = 0
KLO1 240934Z 14005KT 20/11 A2986 RMK A01 T02010113  RH  057%=      5-min Rain = 0
KLO1 240935Z 13005KT 20/11 A2986 RMK A01 T02000112  RH  057%=      5-min Rain = 0
KLO1 240936Z 12004KT 20/11 A2986 RMK A01 T02000112  RH  057%=      5-min Rain = 0
KLO1 240937Z 11004KT 20/11 A2986 RMK A01 T01990112  RH  057%=      5-min Rain = 0
KLO1 240938Z 11005KT 20/11 A2986 RMK A01 T01980111  RH  057%=      5-min Rain = 0
KLO1 240939Z 11005KT 20/11 A2986 RMK A01 T01970112  RH  058%=      5-min Rain = 0
KLO1 240940Z 11005KT 20/11 A2986 RMK A01 T01960112  RH  058%=      5-min Rain = 0
KLO1 240941Z 11005KT 20/11 A2986 RMK A01 T01950112  RH  059%=      5-min Rain = 0
KLO1 240942Z 12005KT 20/11 A2986 RMK A01 T01950112  RH  059%=      5-min Rain = 0
KLO1 240943Z 12005KT 20/11 A2986 RMK A01 T01950112  RH  059%=      5-min Rain = 0
KLO1 240944Z 12005KT 20/11 A2986 RMK A01 T01950112  RH  059%=      5-min Rain = 0
KLO1 240945Z 12004KT 20/11 A2986 RMK A01 T01950112  RH  059%=      5-min Rain = 0
KLO1 240946Z 13006KT 19/11 A2986 RMK A01 T01940112  RH  059%=      5-min Rain = 0
KLO1 240947Z 13005KT 20/11 A2986 RMK A01 T01950112  RH  059%=      5-min Rain = 0
KLO1 240948Z 13005KT 20/11 A2986 RMK A01 T01950112  RH  059%=      5-min Rain = 0
KLO1 240949Z 15005KT 20/11 A2986 RMK A01 T01950112  RH  059%=      5-min Rain = 0
KLO1 240950Z 14005KT 20/11 A2986 RMK A01 T01950112  RH  059%=      5-min Rain = 0
KLO1 240951Z 15005KT 20/11 A2986 RMK A01 T01950112  RH  059%=      5-min Rain = 0
KLO1 240952Z 14004KT 20/11 A2986 RMK A01 T01950112  RH  059%=      5-min Rain = 0
KLO1 240953Z 15004KT 20/11 A2986 RMK A01 T01950112  RH  058%=      5-min Rain = 0
KLO1 240954Z 15005KT 20/11 A2986 RMK A01 T01950112  RH  059%=      5-min Rain = 0
KLO1 240955Z 15004KT 20/11 A2986 RMK A01 T01950112  RH  059%=      5-min Rain = 0
KLO1 240956Z 16005KT 20/11 A2986 RMK A01 T01950112  RH  059%=      5-min Rain = 0
KLO1 240957Z 15005KT 19/11 A2986 RMK A01 T01940112  RH  059%=      5-min Rain = 0
KLO1 240958Z 16005KT 19/11 A2986 RMK A01 T01940112  RH  059%=      5-min Rain = 0
KLO1 240959Z 16005KT 19/11 A2986 RMK A01 T01930112  RH  059%=      5-min Rain = 0
KLO1 241000Z 16005KT 19/11 A2986 RMK A01 T01930112  RH  059%=      5-min Rain = 0
KLO1 241001Z 16004KT 19/11 A2986 RMK A01 T01920112  RH  060%=      5-min Rain = 0
KLO1 241002Z 16004KT 19/11 A2985 RMK A01 T01910112  RH  060%=      5-min Rain = 0
KLO1 241003Z 16005KT 19/11 A2986 RMK A01 T01910112  RH  060%=      5-min Rain = 0
KLO1 241004Z 16004KT 19/11 A2986 RMK A01 T01900112  RH  060%=      5-min Rain = 0
KLO1 241005Z 16005KT 19/11 A2985 RMK A01 T01900112  RH  061%=      5-min Rain = 0
KLO1 241006Z 16005KT 19/11 A2985 RMK A01 T01890112  RH  061%=      5-min Rain = 0
KLO1 241007Z 16006KT 19/11 A2985 RMK A01 T01890112  RH  061%=      5-min Rain = 0
KLO1 241008Z 16005KT 19/11 A2985 RMK A01 T01910114  RH  061%=      5-min Rain = 0
KLO1 241009Z 16004KT 19/11 A2985 RMK A01 T01920114  RH  060%=      5-min Rain = 0
KLO1 241010Z 17004KT 19/11 A2985 RMK A01 T01920114  RH  060%=      5-min Rain = 0
KLO1 241011Z 16005KT 19/11 A2985 RMK A01 T01910113  RH  060%=      5-min Rain = 0
KLO1 241012Z 16005KT 19/11 A2985 RMK A01 T01900113  RH  061%=      5-min Rain = 0
KLO1 241013Z 17005KT 19/11 A2985 RMK A01 T01900113  RH  061%=      5-min Rain = 0
KLO1 241014Z 16006KT 19/11 A2986 RMK A01 T01900113  RH  061%=      5-min Rain = 0
KLO1 241015Z 17006KT 19/11 A2986 RMK A01 T01900113  RH  061%=      5-min Rain = 0
KLO1 241016Z 16006KT 19/11 A2986 RMK A01 T01900113  RH  061%=      5-min Rain = 0
KLO1 241017Z 17005KT 19/11 A2986 RMK A01 T01910113  RH  061%=      5-min Rain = 0
KLO1 241018Z 17007KT 19/11 A2986 RMK A01 T01910113  RH  061%=      5-min Rain = 0
KLO1 241019Z 16006KT 19/11 A2986 RMK A01 T01910113  RH  060%=      5-min Rain = 0
KLO1 241020Z 16006KT 19/11 A2986 RMK A01 T01920114  RH  060%=      5-min Rain = 0
KLO1 241021Z 16006KT 19/11 A2986 RMK A01 T01920113  RH  060%=      5-min Rain = 0
KLO1 241022Z 16005KT 19/11 A2986 RMK A01 T01920113  RH  060%=      5-min Rain = 0
KLO1 241023Z 16005KT 19/11 A2986 RMK A01 T01920114  RH  060%=      5-min Rain = 0
KLO1 241024Z 16005KT 19/11 A2986 RMK A01 T01910113  RH  061%=      5-min Rain = 0
KLO1 241025Z 16005KT 19/11 A2986 RMK A01 T01900113  RH  061%=      5-min Rain = 0
KLO1 241026Z 16005KT 19/11 A2986 RMK A01 T01900114  RH  061%=      5-min Rain = 0
KLO1 241027Z 15005KT 19/11 A2986 RMK A01 T01890114  RH  062%=      5-min Rain = 0
KLO1 241028Z 14005KT 19/11 A2986 RMK A01 T01890114  RH  062%=      5-min Rain = 0
KLO1 241029Z 14006KT 19/11 A2986 RMK A01 T01880114  RH  062%=      5-min Rain = 0
KLO1 241030Z 13006KT 19/11 A2986 RMK A01 T01870114  RH  062%=      5-min Rain = 0
KLO1 241031Z 13006KT 19/12 A2986 RMK A01 T01870115  RH  063%=      5-min Rain = 0
KLO1 241032Z 13007KT 19/12 A2986 RMK A01 T01870115  RH  063%=      5-min Rain = 0
KLO1 241033Z 13007KT 19/11 A2986 RMK A01 T01860114  RH  063%=      5-min Rain = 0
KLO1 241034Z 13006KT 19/11 A2986 RMK A01 T01860114  RH  063%=      5-min Rain = 0
KLO1 241035Z 13006KT 19/11 A2986 RMK A01 T01860114  RH  063%=      5-min Rain = 0
KLO1 241036Z 12006KT 19/11 A2986 RMK A01 T01850113  RH  063%=      5-min Rain = 0
KLO1 241037Z 12006KT 19/11 A2986 RMK A01 T01850113  RH  063%=      5-min Rain = 0
KLO1 241038Z 12005KT 18/11 A2986 RMK A01 T01840113  RH  063%=      5-min Rain = 0
KLO1 241039Z 12005KT 18/11 A2986 RMK A01 T01840114  RH  064%=      5-min Rain = 0
KLO1 241040Z 12005KT 18/11 A2986 RMK A01 T01840114  RH  064%=      5-min Rain = 0
KLO1 241041Z 12005KT 18/11 A2986 RMK A01 T01830114  RH  064%=      5-min Rain = 0
KLO1 241042Z 12006KT 18/11 A2986 RMK A01 T01830114  RH  064%=      5-min Rain = 0
KLO1 241043Z 12006KT 18/11 A2986 RMK A01 T01830114  RH  064%=      5-min Rain = 0
KLO1 241044Z 13006KT 18/12 A2986 RMK A01 T01830115  RH  065%=      5-min Rain = 0
KLO1 241045Z 13006KT 18/12 A2986 RMK A01 T01830115  RH  065%=      5-min Rain = 0
KLO1 241046Z 13006KT 18/12 A2986 RMK A01 T01830115  RH  065%=      5-min Rain = 0
KLO1 241047Z 13006KT 18/12 A2986 RMK A01 T01820115  RH  065%=      5-min Rain = 0
KLO1 241048Z 13005KT 18/12 A2986 RMK A01 T01820115  RH  065%=      5-min Rain = 0
KLO1 241049Z 13005KT 18/12 A2986 RMK A01 T01820115  RH  065%=      5-min Rain = 0
KLO1 241050Z 13005KT 18/12 A2986 RMK A01 T01820115  RH  065%=      5-min Rain = 0
KLO1 241051Z 13006KT 18/12 A2986 RMK A01 T01820115  RH  065%=      5-min Rain = 0
KLO1 241052Z 13006KT 18/11 A2986 RMK A01 T01820114  RH  065%=      5-min Rain = 0
KLO1 241053Z 13006KT 18/11 A2986 RMK A01 T01810114  RH  065%=      5-min Rain = 0
KLO1 241054Z 14006KT 18/11 A2986 RMK A01 T01810114  RH  065%=      5-min Rain = 0
KLO1 241055Z 14006KT 18/11 A2986 RMK A01 T01810114  RH  065%=      5-min Rain = 0
KLO1 241056Z 14006KT 18/11 A2986 RMK A01 T01800114  RH  065%=      5-min Rain = 0
KLO1 241057Z 14006KT 18/11 A2986 RMK A01 T01800114  RH  065%=      5-min Rain = 0
KLO1 241058Z 14007KT 18/11 A2986 RMK A01 T01800114  RH  065%=      5-min Rain = 0
KLO1 241059Z 14007KT 18/11 A2986 RMK A01 T01800114  RH  065%=      5-min Rain = 0
KLO1 241100Z 14007KT 18/11 A2986 RMK A01 T01790114  RH  066%=      5-min Rain = 0
KLO1 241101Z 14006KT 18/11 A2986 RMK A01 T01790114  RH  066%=      5-min Rain = 0
KLO1 241102Z 14006KT 18/11 A2986 RMK A01 T01790114  RH  066%=      5-min Rain = 0
KLO1 241103Z 13006KT 18/11 A2986 RMK A01 T01790114  RH  066%=      5-min Rain = 0
KLO1 241104Z 13006KT 18/12 A2986 RMK A01 T01790115  RH  066%=      5-min Rain = 0
KLO1 241105Z 13007KT 18/12 A2986 RMK A01 T01790115  RH  066%=      5-min Rain = 0
KLO1 241106Z 13007KT 18/12 A2986 RMK A01 T01790115  RH  066%=      5-min Rain = 0
KLO1 241107Z 13006KT 18/12 A2986 RMK A01 T01790115  RH  066%=      5-min Rain = 0
KLO1 241108Z 13006KT 18/12 A2986 RMK A01 T01780115  RH  066%=      5-min Rain = 0
KLO1 241109Z 13007KT 18/12 A2986 RMK A01 T01790115  RH  067%=      5-min Rain = 0
KLO1 241110Z 13006KT 18/12 A2986 RMK A01 T01780116  RH  067%=      5-min Rain = 0
KLO1 241111Z 12006KT 18/12 A2986 RMK A01 T01780116  RH  067%=      5-min Rain = 0
KLO1 241112Z 12007KT 18/12 A2986 RMK A01 T01780116  RH  067%=      5-min Rain = 0
KLO1 241113Z 12006KT 18/12 A2986 RMK A01 T01780116  RH  067%=      5-min Rain = 0
KLO1 241114Z 12007KT 18/12 A2986 RMK A01 T01780116  RH  067%=      5-min Rain = 0
KLO1 241115Z 12007KT 18/12 A2986 RMK A01 T01780116  RH  067%=      5-min Rain = 0
KLO1 241116Z 12007KT 18/12 A2986 RMK A01 T01780116  RH  067%=      5-min Rain = 0
KLO1 241117Z 12007KT 18/12 A2986 RMK A01 T01790116  RH  067%=      5-min Rain = 0
KLO1 241118Z 12007KT 18/12 A2986 RMK A01 T01790116  RH  067%=      5-min Rain = 0
KLO1 241119Z 12006KT 18/12 A2986 RMK A01 T01790116  RH  067%=      5-min Rain = 0
KLO1 241120Z 11006KT 18/12 A2986 RMK A01 T01780115  RH  067%=      5-min Rain = 0
KLO1 241121Z 11006KT 18/12 A2986 RMK A01 T01780115  RH  067%=      5-min Rain = 0
KLO1 241122Z 12006KT 18/12 A2986 RMK A01 T01780116  RH  067%=      5-min Rain = 0
KLO1 241123Z 12007KT 18/12 A2986 RMK A01 T01780115  RH  067%=      5-min Rain = 0
KLO1 241124Z 12006KT 18/12 A2986 RMK A01 T01780115  RH  067%=      5-min Rain = 0
KLO1 241125Z 12006KT 18/12 A2986 RMK A01 T01780115  RH  067%=      5-min Rain = 0
KLO1 241126Z 12007KT 18/12 A2986 RMK A01 T01780115  RH  067%=      5-min Rain = 0
KLO1 241127Z 12007KT 18/12 A2986 RMK A01 T01780115  RH  067%=      5-min Rain = 0
KLO1 241128Z 12007KT 18/12 A2986 RMK A01 T01780115  RH  067%=      5-min Rain = 0
KLO1 241129Z 12008KT 18/12 A2986 RMK A01 T01780115  RH  067%=      5-min Rain = 0
KLO1 241130Z 13008KT 18/12 A2986 RMK A01 T01780115  RH  067%=      5-min Rain = 0
KLO1 241131Z 13007KT 18/12 A2986 RMK A01 T01780115  RH  067%=      5-min Rain = 0
KLO1 241132Z 13008KT 18/12 A2986 RMK A01 T01780116  RH  067%=      5-min Rain = 0
KLO1 241133Z 13008KT 18/12 A2986 RMK A01 T01790116  RH  067%=      5-min Rain = 0
KLO1 241134Z 13008KT 18/12 A2986 RMK A01 T01790117  RH  067%=      5-min Rain = 0
KLO1 241135Z 13008KT 18/12 A2986 RMK A01 T01790117  RH  067%=      5-min Rain = 0
KLO1 241136Z 13008KT 18/12 A2986 RMK A01 T01790117  RH  067%=      5-min Rain = 0
KLO1 241137Z 13008KT 18/12 A2986 RMK A01 T01790117  RH  067%=      5-min Rain = 0
KLO1 241138Z 13009KT 18/12 A2986 RMK A01 T01790117  RH  067%=      5-min Rain = 0
KLO1 241139Z 14008KT 18/12 A2986 RMK A01 T01790117  RH  067%=      5-min Rain = 0
KLO1 241140Z 14009KT 18/12 A2986 RMK A01 T01790118  RH  067%=      5-min Rain = 0
KLO1 241141Z 14009KT 18/12 A2986 RMK A01 T01790118  RH  067%=      5-min Rain = 0
KLO1 241142Z 14008KT 18/12 A2986 RMK A01 T01790118  RH  068%=      5-min Rain = 0
KLO1 241143Z 14009KT 18/12 A2986 RMK A01 T01780118  RH  068%=      5-min Rain = 0
KLO1 241144Z 14009KT 18/12 A2986 RMK A01 T01790118  RH  068%=      5-min Rain = 0
KLO1 241145Z 14008KT 18/12 A2986 RMK A01 T01790119  RH  068%=      5-min Rain = 0
KLO1 241146Z 15009KT 18/12 A2986 RMK A01 T01790119  RH  068%=      5-min Rain = 0
KLO1 241147Z 15009KT 18/12 A2986 RMK A01 T01780119  RH  068%=      5-min Rain = 0
KLO1 241148Z 14009KT 18/12 A2986 RMK A01 T01790119  RH  068%=      5-min Rain = 0
KLO1 241149Z 14009KT 18/12 A2986 RMK A01 T01790119  RH  068%=      5-min Rain = 0
KLO1 241150Z 14009KT 18/12 A2986 RMK A01 T01790120  RH  068%=      5-min Rain = 0
KLO1 241151Z 14009KT 18/12 A2986 RMK A01 T01780120  RH  068%=      5-min Rain = 0
KLO1 241152Z 15009KT 18/12 A2986 RMK A01 T01780120  RH  068%=      5-min Rain = 0
KLO1 241153Z 15010KT 18/12 A2986 RMK A01 T01790120  RH  069%=      5-min Rain = 0
KLO1 241154Z 15010KT 18/12 A2986 RMK A01 T01790121  RH  069%=      5-min Rain = 0
KLO1 241155Z 15010KT 18/12 A2986 RMK A01 T01790121  RH  069%=      5-min Rain = 0
KLO1 241156Z 15010KT 18/12 A2986 RMK A01 T01780120  RH  069%=      5-min Rain = 0
KLO1 241157Z 15010KT 18/12 A2986 RMK A01 T01790121  RH  069%=      5-min Rain = 0
KLO1 241158Z 15009KT 18/12 A2986 RMK A01 T01790122  RH  069%=      5-min Rain = 0
KLO1 241159Z 15009KT 18/12 A2986 RMK A01 T01790122  RH  069%=      5-min Rain = 0
KLO1 241200Z 15009KT 18/12 A2986 RMK A01 T01790122  RH  069%=      5-min Rain = 0
KLO1 241201Z 15009KT 18/12 A2986 RMK A01 T01800123  RH  069%=      5-min Rain = 0
KLO1 241202Z 16009KT 18/12 A2986 RMK A01 T01790123  RH  070%=      5-min Rain = 0
KLO1 241203Z 16010KT 18/12 A2986 RMK A01 T01800124  RH  070%=      5-min Rain = 0
KLO1 241204Z 16009KT 18/12 A2986 RMK A01 T01800124  RH  070%=      5-min Rain = 0
KLO1 241205Z 16009KT 18/13 A2986 RMK A01 T01810125  RH  070%=      5-min Rain = 0
KLO1 241206Z 16011KT 18/13 A2986 RMK A01 T01810126  RH  070%=      5-min Rain = 0
KLO1 241207Z 17010KT 18/13 A2986 RMK A01 T01820128  RH  071%=      5-min Rain = 0
KLO1 241208Z 16011KT 18/13 A2986 RMK A01 T01840130  RH  071%=      5-min Rain = 0
KLO1 241209Z 17012KT 19/13 A2986 RMK A01 T01850131  RH  071%=      5-min Rain = 0
KLO1 241210Z 17010KT 19/13 A2986 RMK A01 T01860131  RH  070%=      5-min Rain = 0
KLO1 241211Z 17012KT 19/13 A2986 RMK A01 T01870132  RH  070%=      5-min Rain = 0
KLO1 241212Z 16013KT 19/13 A2986 RMK A01 T01880132  RH  070%=      5-min Rain = 0
KLO1 241213Z 16012KT 19/13 A2986 RMK A01 T01890133  RH  070%=      5-min Rain = 0
KLO1 241214Z 17011KT 19/13 A2986 RMK A01 T01890133  RH  070%=      5-min Rain = 0
KLO1 241215Z 16011KT 19/13 A2986 RMK A01 T01900133  RH  069%=      5-min Rain = 0
KLO1 241216Z 16011KT 19/13 A2986 RMK A01 T01900133  RH  069%=      5-min Rain = 0
KLO1 241217Z 16010KT 19/13 A2986 RMK A01 T01900133  RH  069%=      5-min Rain = 0
KLO1 241218Z 16012KT 19/13 A2986 RMK A01 T01900133  RH  069%=      5-min Rain = 0
KLO1 241219Z 16011KT 19/13 A2986 RMK A01 T01900133  RH  069%=      5-min Rain = 0
KLO1 241220Z 16013KT 19/13 A2986 RMK A01 T01910134  RH  069%=      5-min Rain = 0
KLO1 241221Z 15011KT 19/13 A2986 RMK A01 T01900133  RH  069%=      5-min Rain = 0
KLO1 241222Z 16011KT 19/13 A2986 RMK A01 T01910134  RH  069%=      5-min Rain = 0
KLO1 241223Z 16011KT 19/13 A2986 RMK A01 T01910134  RH  069%=      5-min Rain = 0
KLO1 241224Z 15013KT 19/13 A2986 RMK A01 T01910134  RH  069%=      5-min Rain = 0
KLO1 241225Z 16013KT 19/13 A2986 RMK A01 T01910134  RH  069%=      5-min Rain = 0
KLO1 241226Z 16012KT 19/13 A2986 RMK A01 T01910134  RH  069%=      5-min Rain = 0
KLO1 241227Z 16013KT 19/13 A2986 RMK A01 T01910134  RH  069%=      5-min Rain = 0
KLO1 241228Z 16012KT 19/13 A2986 RMK A01 T01920134  RH  069%=      5-min Rain = 0
KLO1 241229Z 16011KT 19/14 A2986 RMK A01 T01920135  RH  069%=      5-min Rain = 0
KLO1 241230Z 16011KT 19/14 A2986 RMK A01 T01930135  RH  069%=      5-min Rain = 0
KLO1 241231Z 15011KT 19/14 A2986 RMK A01 T01930135  RH  069%=      5-min Rain = 0
KLO1 241232Z 16012KT 19/14 A2986 RMK A01 T01940136  RH  069%=      5-min Rain = 0
KLO1 241233Z 15013KT 19/14 A2986 RMK A01 T01940136  RH  069%=      5-min Rain = 0
KLO1 241234Z 15012KT 19/14 A2986 RMK A01 T01940135  RH  069%=      5-min Rain = 0
KLO1 241235Z 16011KT 19/14 A2986 RMK A01 T01940136  RH  069%=      5-min Rain = 0
KLO1 241236Z 16011KT 19/14 A2986 RMK A01 T01940136  RH  069%=      5-min Rain = 0
KLO1 241237Z 15012KT 19/14 A2986 RMK A01 T01940136  RH  069%=      5-min Rain = 0
KLO1 241238Z 15012KT 19/14 A2986 RMK A01 T01940136  RH  069%=      5-min Rain = 0
KLO1 241239Z 15010KT 19/14 A2986 RMK A01 T01940136  RH  069%=      5-min Rain = 0
KLO1 241240Z 16011KT 20/14 A2986 RMK A01 T01950136  RH  069%=      5-min Rain = 0
KLO1 241241Z 16013KT 20/14 A2986 RMK A01 T01950137  RH  069%=      5-min Rain = 0
KLO1 241242Z 16012KT 20/14 A2986 RMK A01 T01960136  RH  069%=      5-min Rain = 0
KLO1 241243Z 15009KT 20/14 A2986 RMK A01 T01960137  RH  069%=      5-min Rain = 0
KLO1 241244Z 16010KT 20/14 A2986 RMK A01 T01960137  RH  068%=      5-min Rain = 0
KLO1 241245Z 16010KT 20/14 A2986 RMK A01 T01970137  RH  068%=      5-min Rain = 0
KLO1 241246Z 16011KT 20/14 A2986 RMK A01 T01970138  RH  069%=      5-min Rain = 0
KLO1 241247Z 16011KT 20/14 A2986 RMK A01 T01980139  RH  069%=      5-min Rain = 0
KLO1 241248Z 17013KT 20/14 A2986 RMK A01 T01990139  RH  069%=      5-min Rain = 0
KLO1 241249Z 16011KT 20/14 A2986 RMK A01 T01990140  RH  068%=      5-min Rain = 0
KLO1 241250Z 16012KT 20/14 A2986 RMK A01 T02000140  RH  068%=      5-min Rain = 0
KLO1 241251Z 16011KT 20/14 A2986 RMK A01 T02000140  RH  068%=      5-min Rain = 0
KLO1 241252Z 16013G18KT 20/14 A2986 RMK A01 T02010140  RH  068%=      5-min Rain = 0
KLO1 241253Z 16014KT 20/14 A2986 RMK A01 T02010141  RH  068%=      5-min Rain = 0
KLO1 241254Z 16015KT 20/14 A2986 RMK A01 T02010140  RH  068%=      5-min Rain = 0
KLO1 241255Z 16011KT 20/14 A2986 RMK A01 T02020141  RH  068%=      5-min Rain = 0
KLO1 241256Z 16011KT 20/14 A2986 RMK A01 T02020141  RH  068%=      5-min Rain = 0
KLO1 241257Z 16012KT 20/14 A2986 RMK A01 T02020141  RH  068%=      5-min Rain = 0
KLO1 241258Z 15013KT 20/14 A2986 RMK A01 T02020142  RH  068%=      5-min Rain = 0
KLO1 241259Z 16012KT 20/14 A2986 RMK A01 T02020142  RH  068%=      5-min Rain = 0
KLO1 241300Z 15012KT 20/14 A2986 RMK A01 T02030142  RH  068%=      5-min Rain = 0
KLO1 241301Z 16012KT 20/14 A2986 RMK A01 T02030143  RH  068%=      5-min Rain = 0
KLO1 241302Z 16013KT 20/14 A2986 RMK A01 T02040143  RH  068%=      5-min Rain = 0
KLO1 241303Z 16016KT 20/14 A2986 RMK A01 T02040144  RH  068%=      5-min Rain = 0
KLO1 241304Z 16013KT 20/14 A2986 RMK A01 T02040144  RH  068%=      5-min Rain = 0
KLO1 241305Z 16016KT 20/15 A2986 RMK A01 T02040145  RH  068%=      5-min Rain = 0
KLO1 241306Z 16015KT 21/15 A2986 RMK A01 T02050145  RH  068%=      5-min Rain = 0
KLO1 241307Z 16016KT 21/15 A2985 RMK A01 T02050145  RH  068%=      5-min Rain = 0
KLO1 241308Z 15012KT 21/15 A2985 RMK A01 T02050145  RH  068%=      5-min Rain = 0
KLO1 241309Z 16012KT 21/15 A2985 RMK A01 T02060146  RH  068%=      5-min Rain = 0
KLO1 241310Z 16016KT 21/15 A2985 RMK A01 T02070146  RH  068%=      5-min Rain = 0
KLO1 241311Z 16015KT 21/15 A2985 RMK A01 T02070145  RH  068%=      5-min Rain = 0
KLO1 241312Z 16014KT 21/15 A2985 RMK A01 T02080146  RH  068%=      5-min Rain = 0
KLO1 241313Z 16016KT 21/15 A2985 RMK A01 T02070146  RH  068%=      5-min Rain = 0
KLO1 241314Z 16015KT 21/15 A2985 RMK A01 T02080146  RH  068%=      5-min Rain = 0
KLO1 241315Z 17013KT 21/15 A2985 RMK A01 T02080145  RH  067%=      5-min Rain = 0
KLO1 241316Z 16014KT 21/15 A2985 RMK A01 T02080146  RH  068%=      5-min Rain = 0
KLO1 241317Z 16014KT 21/15 A2985 RMK A01 T02080146  RH  068%=      5-min Rain = 0
KLO1 241318Z 17017KT 21/15 A2985 RMK A01 T02080146  RH  068%=      5-min Rain = 0
KLO1 241319Z 16013KT 21/15 A2985 RMK A01 T02080147  RH  068%=      5-min Rain = 0
KLO1 241320Z 17013KT 21/15 A2985 RMK A01 T02090147  RH  068%=      5-min Rain = 0
KLO1 241321Z 16014KT 21/15 A2984 RMK A01 T02100148  RH  068%=      5-min Rain = 0
KLO1 241322Z 17015KT 21/15 A2984 RMK A01 T02100147  RH  067%=      5-min Rain = 0
KLO1 241323Z 16014KT 21/15 A2984 RMK A01 T02100148  RH  068%=      5-min Rain = 0
KLO1 241324Z 16016KT 21/15 A2984 RMK A01 T02100148  RH  068%=      5-min Rain = 0
KLO1 241325Z 17016KT 21/15 A2984 RMK A01 T02100148  RH  068%=      5-min Rain = 0
KLO1 241326Z 16019KT 21/15 A2984 RMK A01 T02110149  RH  068%=      5-min Rain = 0
KLO1 241327Z 17018KT 21/15 A2984 RMK A01 T02110149  RH  068%=      5-min Rain = 0
KLO1 241328Z 17017KT 21/15 A2984 RMK A01 T02110149  RH  068%=      5-min Rain = 0
KLO1 241329Z 17017KT 21/15 A2985 RMK A01 T02100150  RH  068%=      5-min Rain = 0
KLO1 241330Z 17015KT 21/15 A2985 RMK A01 T02100150  RH  068%=      5-min Rain = 0
KLO1 241331Z 17018KT 21/15 A2985 RMK A01 T02120151  RH  068%=      5-min Rain = 0
KLO1 241332Z 17018KT 21/15 A2985 RMK A01 T02120151  RH  068%=      5-min Rain = 0
KLO1 241333Z 16017KT 21/15 A2984 RMK A01 T02120151  RH  068%=      5-min Rain = 0
KLO1 241334Z 17015G21KT 21/15 A2984 RMK A01 T02130151  RH  068%=      5-min Rain = 0
KLO1 241335Z 17019KT 21/15 A2984 RMK A01 T02140152  RH  068%=      5-min Rain = 0
KLO1 241336Z 17018KT 21/15 A2984 RMK A01 T02140152  RH  067%=      5-min Rain = 0
KLO1 241337Z 17016G21KT 21/15 A2984 RMK A01 T02140152  RH  068%=      5-min Rain = 0
KLO1 241338Z 17017KT 21/15 A2984 RMK A01 T02140153  RH  068%=      5-min Rain = 0
KLO1 241339Z 17017KT 22/15 A2984 RMK A01 T02150153  RH  068%=      5-min Rain = 0
KLO1 241340Z 17019KT 22/15 A2984 RMK A01 T02160153  RH  067%=      5-min Rain = 0
KLO1 241341Z 17016KT 22/15 A2984 RMK A01 T02160153  RH  067%=      5-min Rain = 0
KLO1 241342Z 17016KT 22/15 A2984 RMK A01 T02160154  RH  067%=      5-min Rain = 0
KLO1 241343Z 17019G24KT 22/16 A2984 RMK A01 T02170155  RH  067%=      5-min Rain = 0
KLO1 241344Z 18018G23KT 22/16 A2984 RMK A01 T02180155  RH  067%=      5-min Rain = 0
KLO1 241345Z 18017KT 22/16 A2984 RMK A01 T02180155  RH  067%=      5-min Rain = 0
KLO1 241346Z 17017KT 22/16 A2984 RMK A01 T02190156  RH  067%=      5-min Rain = 0
KLO1 241347Z 18019KT 22/16 A2984 RMK A01 T02200156  RH  067%=      5-min Rain = 0
KLO1 241348Z 18018KT 22/16 A2984 RMK A01 T02200156  RH  067%=      5-min Rain = 0
KLO1 241349Z 18018KT 22/16 A2984 RMK A01 T02200156  RH  067%=      5-min Rain = 0
KLO1 241350Z 17018KT 22/16 A2984 RMK A01 T02210157  RH  067%=      5-min Rain = 0
KLO1 241351Z 18018KT 22/16 A2984 RMK A01 T02200157  RH  067%=      5-min Rain = 0
KLO1 241352Z 18022KT 22/16 A2984 RMK A01 T02200158  RH  068%=      5-min Rain = 0
KLO1 241353Z 18018G25KT 22/16 A2984 RMK A01 T02200157  RH  068%=      5-min Rain = 0
KLO1 241354Z 18023G28KT 22/16 A2984 RMK A01 T02190157  RH  068%=      5-min Rain = 0
KLO1 241355Z 18022KT 22/16 A2984 RMK A01 T02190158  RH  068%=      5-min Rain = 0
KLO1 241356Z 17023KT 22/16 A2984 RMK A01 T02200158  RH  068%=      5-min Rain = 0
KLO1 241357Z 17021KT 22/16 A2984 RMK A01 T02190159  RH  069%=      5-min Rain = 0
KLO1 241358Z 17023KT 22/16 A2984 RMK A01 T02190159  RH  069%=      5-min Rain = 0
KLO1 241359Z 18021G27KT 22/16 A2984 RMK A01 T02190160  RH  069%=      5-min Rain = 0
KLO1 241400Z 18019KT 22/16 A2984 RMK A01 T02200160  RH  069%=      5-min Rain = 0
KLO1 241401Z 18019G24KT 22/16 A2984 RMK A01 T02210160  RH  068%=      5-min Rain = 0
KLO1 241402Z 18020KT 22/16 A2984 RMK A01 T02220161  RH  068%=      5-min Rain = 0
KLO1 241403Z 18019G25KT 22/16 A2984 RMK A01 T02220161  RH  068%=      5-min Rain = 0
KLO1 241404Z 18020KT 22/16 A2984 RMK A01 T02230161  RH  068%=      5-min Rain = 0
KLO1 241405Z 17017KT 22/16 A2984 RMK A01 T02230162  RH  068%=      5-min Rain = 0
KLO1 241406Z 18021G26KT 23/16 A2984 RMK A01 T02250163  RH  068%=      5-min Rain = 0
KLO1 241407Z 18021KT 23/16 A2984 RMK A01 T02260163  RH  068%=      5-min Rain = 0
KLO1 241408Z 17025KT 23/16 A2984 RMK A01 T02250163  RH  068%=      5-min Rain = 0
KLO1 241409Z 18021G27KT 22/16 A2984 RMK A01 T02240163  RH  069%=      5-min Rain = 0
KLO1 241410Z 17020KT 22/16 A2984 RMK A01 T02240164  RH  068%=      5-min Rain = 0
KLO1 241411Z 18022G28KT 22/16 A2984 RMK A01 T02240164  RH  068%=      5-min Rain = 0
KLO1 241412Z 18023KT 22/16 A2984 RMK A01 T02240164  RH  069%=      5-min Rain = 0
KLO1 241413Z 17020KT 22/17 A2985 RMK A01 T02230165  RH  070%=      5-min Rain = 0
KLO1 241414Z 17021KT 22/17 A2985 RMK A01 T02230165  RH  070%=      5-min Rain = 0
KLO1 241415Z 17027G32KT 22/17 A2985 RMK A01 T02230165  RH  070%=      5-min Rain = 0
KLO1 241416Z 18024G29KT 22/17 A2985 RMK A01 T02240166  RH  070%=      5-min Rain = 0
KLO1 241417Z 17026KT 22/17 A2985 RMK A01 T02240166  RH  070%=      5-min Rain = 0
KLO1 241418Z 18022KT 22/17 A2985 RMK A01 T02240167  RH  070%=      5-min Rain = 0
KLO1 241419Z 17024KT 22/17 A2985 RMK A01 T02240167  RH  070%=      5-min Rain = 0
KLO1 241420Z 17021G26KT 23/17 A2985 RMK A01 T02250167  RH  070%=      5-min Rain = 0
KLO1 241421Z 18021G26KT 23/17 A2985 RMK A01 T02270168  RH  070%=      5-min Rain = 0
KLO1 241422Z 17020KT 23/17 A2985 RMK A01 T02280168  RH  069%=      5-min Rain = 0
KLO1 241423Z 17022G27KT 23/17 A2985 RMK A01 T02280168  RH  069%=      5-min Rain = 0
KLO1 241424Z 18021G26KT 23/17 A2985 RMK A01 T02270168  RH  069%=      5-min Rain = 0
KLO1 241425Z 18022KT 23/17 A2985 RMK A01 T02260168  RH  069%=      5-min Rain = 0
KLO1 241426Z 17021KT 23/17 A2985 RMK A01 T02250168  RH  070%=      5-min Rain = 0
KLO1 241427Z 17021KT 23/17 A2985 RMK A01 T02250168  RH  070%=      5-min Rain = 0
KLO1 241428Z 17021KT 23/17 A2985 RMK A01 T02270169  RH  070%=      5-min Rain = 0
KLO1 241429Z 18021G28KT 23/17 A2985 RMK A01 T02270169  RH  070%=      5-min Rain = 0
KLO1 241430Z 17021KT 23/17 A2985 RMK A01 T02270169  RH  070%=      5-min Rain = 0
KLO1 241431Z 18022KT 23/17 A2985 RMK A01 T02270169  RH  070%=      5-min Rain = 0
KLO1 241432Z 18022KT 23/17 A2985 RMK A01 T02270170  RH  070%=      5-min Rain = 0
KLO1 241433Z 18021G26KT 23/17 A2985 RMK A01 T02270170  RH  070%=      5-min Rain = 0
KLO1 241434Z 18021G26KT 23/17 A2985 RMK A01 T02270170  RH  070%=      5-min Rain = 0
KLO1 241435Z 18023KT 23/17 A2985 RMK A01 T02280170  RH  070%=      5-min Rain = 0
KLO1 241436Z 18021KT 23/17 A2985 RMK A01 T02280171  RH  070%=      5-min Rain = 0
KLO1 241437Z 18021KT 23/17 A2985 RMK A01 T02280171  RH  070%=      5-min Rain = 0
KLO1 241438Z 18018KT 23/17 A2985 RMK A01 T02280171  RH  070%=      5-min Rain = 0
KLO1 241439Z 17021KT 23/17 A2985 RMK A01 T02290171  RH  070%=      5-min Rain = 0
KLO1 241440Z 17022KT 23/17 A2985 RMK A01 T02290171  RH  070%=      5-min Rain = 0
KLO1 241441Z 17019KT 23/17 A2985 RMK A01 T02270171  RH  070%=      5-min Rain = 0
KLO1 241442Z 18020KT 23/17 A2985 RMK A01 T02290172  RH  070%=      5-min Rain = 0
KLO1 241443Z 17022G27KT 23/17 A2985 RMK A01 T02300172  RH  070%=      5-min Rain = 0
KLO1 241444Z 17025KT 23/17 A2984 RMK A01 T02310173  RH  070%=      5-min Rain = 0
KLO1 241445Z 17023KT 23/17 A2985 RMK A01 T02320173  RH  069%=      5-min Rain = 0
KLO1 241446Z 17024KT 23/17 A2984 RMK A01 T02340174  RH  069%=      5-min Rain = 0
KLO1 241447Z 17024KT 24/17 A2984 RMK A01 T02350173  RH  068%=      5-min Rain = 0
KLO1 241448Z 17022G27KT 23/17 A2984 RMK A01 T02330174  RH  069%=      5-min Rain = 0
KLO1 241449Z 17026KT 24/17 A2984 RMK A01 T02350174  RH  069%=      5-min Rain = 0
KLO1 241450Z 17023G30KT 24/17 A2984 RMK A01 T02360174  RH  068%=      5-min Rain = 0
KLO1 241451Z 17024KT 24/17 A2985 RMK A01 T02370174  RH  068%=      5-min Rain = 0
KLO1 241452Z 16023KT 24/18 A2985 RMK A01 T02380175  RH  068%=      5-min Rain = 0
KLO1 241453Z 17023G28KT 24/18 A2984 RMK A01 T02390175  RH  067%=      5-min Rain = 0
KLO1 241454Z 17022KT 24/18 A2984 RMK A01 T02390175  RH  067%=      5-min Rain = 0
KLO1 241455Z 17021KT 24/18 A2984 RMK A01 T02390175  RH  067%=      5-min Rain = 0
KLO1 241456Z 18021KT 24/18 A2985 RMK A01 T02400176  RH  067%=      5-min Rain = 0
KLO1 241457Z 18022KT 24/18 A2984 RMK A01 T02410175  RH  066%=      5-min Rain = 0
KLO1 241458Z 18022KT 24/17 A2984 RMK A01 T02400174  RH  067%=      5-min Rain = 0
KLO1 241459Z 18024G29KT 24/17 A2984 RMK A01 T02370174  RH  068%=      5-min Rain = 0
KLO1 241500Z 19023KT 24/17 A2984 RMK A01 T02360174  RH  068%=      5-min Rain = 0
KLO1 241501Z 18022KT 24/17 A2984 RMK A01 T02360174  RH  068%=      5-min Rain = 0
KLO1 241502Z 18024G29KT 24/18 A2984 RMK A01 T02370175  RH  068%=      5-min Rain = 0
KLO1 241503Z 18023KT 24/17 A2984 RMK A01 T02380174  RH  067%=      5-min Rain = 0
KLO1 241504Z 18021KT 24/17 A2984 RMK A01 T02370174  RH  068%=      5-min Rain = 0
KLO1 241505Z 19019G24KT 24/18 A2984 RMK A01 T02370175  RH  068%=      5-min Rain = 0
KLO1 241506Z 18018KT 24/18 A2984 RMK A01 T02380176  RH  068%=      5-min Rain = 0
KLO1 241507Z 18022KT 24/18 A2984 RMK A01 T02410177  RH  067%=      5-min Rain = 0
KLO1 241508Z 17022G27KT 24/18 A2984 RMK A01 T02430176  RH  066%=      5-min Rain = 0
KLO1 241509Z 18019KT 24/18 A2984 RMK A01 T02440177  RH  066%=      5-min Rain = 0
KLO1 241510Z 16022G29KT 25/18 A2984 RMK A01 T02470178  RH  065%=      5-min Rain = 0
KLO1 241511Z 17024KT 25/18 A2984 RMK A01 T02470177  RH  065%=      5-min Rain = 0
KLO1 241512Z 17022G28KT 25/18 A2984 RMK A01 T02450177  RH  066%=      5-min Rain = 0
KLO1 241513Z 18020G27KT 24/18 A2984 RMK A01 T02440177  RH  066%=      5-min Rain = 0
KLO1 241514Z 18025KT 24/18 A2984 RMK A01 T02440176  RH  066%=      5-min Rain = 0
KLO1 241515Z 18024KT 24/18 A2984 RMK A01 T02430175  RH  066%=      5-min Rain = 0
KLO1 241516Z 18024KT 24/18 A2984 RMK A01 T02410175  RH  067%=      5-min Rain = 0
KLO1 241517Z 18021KT 24/18 A2984 RMK A01 T02410176  RH  067%=      5-min Rain = 0
KLO1 241518Z 18019G25KT 24/18 A2984 RMK A01 T02420177  RH  067%=      5-min Rain = 0
KLO1 241519Z 18019G25KT 25/18 A2984 RMK A01 T02460178  RH  066%=      5-min Rain = 0
KLO1 241520Z 17021G26KT 25/18 A2984 RMK A01 T02470179  RH  066%=      5-min Rain = 0
KLO1 241521Z 17023G28KT 25/18 A2984 RMK A01 T02480178  RH  065%=      5-min Rain = 0
KLO1 241522Z 18023G28KT 25/18 A2984 RMK A01 T02470177  RH  065%=      5-min Rain = 0
KLO1 241523Z 18020KT 25/18 A2984 RMK A01 T02460177  RH  065%=      5-min Rain = 0
KLO1 241524Z 17018G24KT 25/18 A2984 RMK A01 T02470177  RH  065%=      5-min Rain = 0
KLO1 241525Z 16022KT 25/18 A2984 RMK A01 T02490178  RH  065%=      5-min Rain = 0
KLO1 241526Z 17024KT 25/18 A2984 RMK A01 T02500177  RH  064%=      5-min Rain = 0
KLO1 241527Z 17023KT 25/18 A2984 RMK A01 T02500177  RH  064%=      5-min Rain = 0
KLO1 241528Z 17023KT 25/18 A2984 RMK A01 T02490177  RH  064%=      5-min Rain = 0
KLO1 241529Z 17023KT 25/18 A2984 RMK A01 T02490177  RH  064%=      5-min Rain = 0
KLO1 241530Z 17022KT 25/18 A2984 RMK A01 T02490178  RH  065%=      5-min Rain = 0
KLO1 241531Z 16020KT 25/18 A2984 RMK A01 T02500178  RH  064%=      5-min Rain = 0
KLO1 241532Z 17024KT 25/18 A2984 RMK A01 T02510178  RH  064%=      5-min Rain = 0
KLO1 241533Z 17024KT 25/18 A2984 RMK A01 T02510177  RH  063%=      5-min Rain = 0
KLO1 241534Z 17021KT 25/18 A2984 RMK A01 T02510177  RH  064%=      5-min Rain = 0
KLO1 241535Z 17023KT 25/18 A2984 RMK A01 T02520178  RH  063%=      5-min Rain = 0
KLO1 241536Z 17024KT 25/18 A2984 RMK A01 T02520177  RH  063%=      5-min Rain = 0
KLO1 241537Z 17022KT 25/18 A2984 RMK A01 T02500177  RH  064%=      5-min Rain = 0
KLO1 241538Z 18022KT 25/18 A2984 RMK A01 T02510178  RH  064%=      5-min Rain = 0
KLO1 241539Z 18019KT 25/18 A2984 RMK A01 T02520178  RH  064%=      5-min Rain = 0
KLO1 241540Z 18019KT 25/18 A2984 RMK A01 T02540178  RH  063%=      5-min Rain = 0
KLO1 241541Z 17019G24KT 26/18 A2984 RMK A01 T02560180  RH  063%=      5-min Rain = 0
KLO1 241542Z 17023KT 26/18 A2984 RMK A01 T02580179  RH  062%=      5-min Rain = 0
KLO1 241543Z 16021G26KT 26/18 A2984 RMK A01 T02570180  RH  062%=      5-min Rain = 0
KLO1 241544Z 17021KT 26/18 A2984 RMK A01 T02570179  RH  062%=      5-min Rain = 0
KLO1 241545Z 17019G24KT 26/18 A2984 RMK A01 T02580179  RH  062%=      5-min Rain = 0
KLO1 241546Z 16023KT 26/18 A2984 RMK A01 T02570179  RH  062%=      5-min Rain = 0
KLO1 241547Z 17020KT 26/18 A2984 RMK A01 T02560179  RH  062%=      5-min Rain = 0
KLO1 241548Z 17021KT 26/18 A2984 RMK A01 T02560179  RH  062%=      5-min Rain = 0
KLO1 241549Z 16020G25KT 26/18 A2984 RMK A01 T02570179  RH  062%=      5-min Rain = 0
KLO1 241550Z 16022KT 26/18 A2984 RMK A01 T02580179  RH  062%=      5-min Rain = 0
KLO1 241551Z 17023KT 26/18 A2984 RMK A01 T02580179  RH  062%=      5-min Rain = 0
KLO1 241552Z 17023KT 26/18 A2984 RMK A01 T02570178  RH  062%=      5-min Rain = 0
KLO1 241553Z 17025KT 26/18 A2984 RMK A01 T02560178  RH  062%=      5-min Rain = 0
KLO1 241554Z 17023KT 26/18 A2984 RMK A01 T02560178  RH  062%=      5-min Rain = 0
KLO1 241555Z 17020G25KT 26/18 A2984 RMK A01 T02560179  RH  062%=      5-min Rain = 0
KLO1 241556Z 17020KT 26/18 A2984 RMK A01 T02580180  RH  062%=      5-min Rain = 0
KLO1 241557Z 17020G25KT 26/18 A2984 RMK A01 T02610181  RH  061%=      5-min Rain = 0
KLO1 241558Z 17021KT 26/18 A2984 RMK A01 T02620180  RH  061%=      5-min Rain = 0
KLO1 241559Z 16021KT 26/18 A2984 RMK A01 T02620180  RH  061%=      5-min Rain = 0
KLO1 241600Z 16022KT 26/18 A2984 RMK A01 T02640181  RH  060%=      5-min Rain = 0
KLO1 241601Z 18021KT 27/18 A2984 RMK A01 T02660180  RH  059%=      5-min Rain = 0
KLO1 241602Z 18020KT 27/18 A2984 RMK A01 T02650178  RH  059%=      5-min Rain = 0
KLO1 241603Z 17022KT 26/18 A2984 RMK A01 T02630179  RH  060%=      5-min Rain = 0
KLO1 241604Z 17021G26KT 26/18 A2983 RMK A01 T02630179  RH  060%=      5-min Rain = 0
KLO1 241605Z 16020KT 26/18 A2983 RMK A01 T02630180  RH  060%=      5-min Rain = 0
KLO1 241606Z 17020KT 27/18 A2984 RMK A01 T02650180  RH  060%=      5-min Rain = 0
KLO1 241607Z 17021KT 27/18 A2984 RMK A01 T02660181  RH  060%=      5-min Rain = 0
KLO1 241608Z 18022KT 27/18 A2984 RMK A01 T02660180  RH  059%=      5-min Rain = 0
KLO1 241609Z 18020KT 26/18 A2984 RMK A01 T02640178  RH  059%=      5-min Rain = 0
KLO1 241610Z 18022KT 26/18 A2984 RMK A01 T02620179  RH  060%=      5-min Rain = 0
KLO1 241611Z 18019G24KT 26/18 A2984 RMK A01 T02610179  RH  060%=      5-min Rain = 0
KLO1 241612Z 17022KT 26/18 A2984 RMK A01 T02640180  RH  060%=      5-min Rain = 0
KLO1 241613Z 16018KT 26/18 A2984 RMK A01 T02640180  RH  060%=      5-min Rain = 0
KLO1 241614Z 18018KT 27/18 A2984 RMK A01 T02650182  RH  060%=      5-min Rain = 0
KLO1 241615Z 16017KT 27/18 A2984 RMK A01 T02690182  RH  059%=      5-min Rain = 0
KLO1 241616Z 17021KT 27/18 A2983 RMK A01 T02710182  RH  058%=      5-min Rain = 0
KLO1 241617Z 18020KT 27/18 A2983 RMK A01 T02700181  RH  058%=      5-min Rain = 0
KLO1 241618Z 17016KT 27/18 A2984 RMK A01 T02680180  RH  058%=      5-min Rain = 0
KLO1 241619Z 17019G26KT 27/18 A2983 RMK A01 T02680182  RH  059%=      5-min Rain = 0
KLO1 241620Z 17022KT 27/18 A2984 RMK A01 T02700181  RH  058%=      5-min Rain = 0
KLO1 241621Z 17023KT 27/18 A2983 RMK A01 T02700180  RH  058%=      5-min Rain = 0
KLO1 241622Z 17021KT 27/18 A2984 RMK A01 T02680179  RH  058%=      5-min Rain = 0
KLO1 241623Z 16021KT 27/18 A2984 RMK A01 T02680180  RH  059%=      5-min Rain = 0
KLO1 241624Z 17018KT 27/18 A2984 RMK A01 T02680180  RH  059%=      5-min Rain = 0
KLO1 241625Z 17020G25KT 27/18 A2983 RMK A01 T02700182  RH  059%=      5-min Rain = 0
KLO1 241626Z 17023KT 27/18 A2983 RMK A01 T02700180  RH  058%=      5-min Rain = 0
KLO1 241627Z 18021KT 27/18 A2983 RMK A01 T02690179  RH  058%=      5-min Rain = 0
KLO1 241628Z 18018KT 27/18 A2983 RMK A01 T02680180  RH  058%=      5-min Rain = 0
KLO1 241629Z 17017KT 27/18 A2983 RMK A01 T02670180  RH  059%=      5-min Rain = 0
KLO1 241630Z 16019KT 27/18 A2983 RMK A01 T02690180  RH  058%=      5-min Rain = 0
KLO1 241631Z 16020KT 27/18 A2983 RMK A01 T02700181  RH  058%=      5-min Rain = 0
KLO1 241632Z 16019G24KT 27/18 A2983 RMK A01 T02720181  RH  057%=      5-min Rain = 0
KLO1 241633Z 16018G24KT 27/18 A2983 RMK A01 T02710180  RH  058%=      5-min Rain = 0
KLO1 241634Z 17020KT 27/18 A2983 RMK A01 T02710181  RH  058%=      5-min Rain = 0
KLO1 241635Z 17017KT 27/18 A2983 RMK A01 T02720180  RH  057%=      5-min Rain = 0
KLO1 241636Z 15019KT 27/18 A2983 RMK A01 T02730181  RH  057%=      5-min Rain = 0
KLO1 241637Z 16021KT 27/18 A2983 RMK A01 T02740180  RH  056%=      5-min Rain = 0
KLO1 241638Z 16020KT 27/18 A2983 RMK A01 T02730180  RH  057%=      5-min Rain = 0
KLO1 241639Z 16015G25KT 27/18 A2983 RMK A01 T02740181  RH  057%=      5-min Rain = 0
KLO1 241640Z 16021KT 28/18 A2983 RMK A01 T02780181  RH  055%=      5-min Rain = 0
KLO1 241641Z 16020KT 28/18 A2983 RMK A01 T02760179  RH  055%=      5-min Rain = 0
KLO1 241642Z 16020KT 27/18 A2983 RMK A01 T02740179  RH  056%=      5-min Rain = 0
KLO1 241643Z 17017KT 28/18 A2983 RMK A01 T02750180  RH  056%=      5-min Rain = 0
KLO1 241644Z 17020KT 28/18 A2983 RMK A01 T02770179  RH  055%=      5-min Rain = 0
KLO1 241645Z 16020G25KT 28/18 A2983 RMK A01 T02750179  RH  056%=      5-min Rain = 0
KLO1 241646Z 16021KT 27/18 A2983 RMK A01 T02740178  RH  056%=      5-min Rain = 0
KLO1 241647Z 16021KT 27/18 A2983 RMK A01 T02730178  RH  056%=      5-min Rain = 0
KLO1 241648Z 16021KT 28/18 A2983 RMK A01 T02750178  RH  056%=      5-min Rain = 0
KLO1 241649Z 16021G27KT 28/18 A2983 RMK A01 T02750178  RH  055%=      5-min Rain = 0
KLO1 241650Z 16022KT 28/18 A2983 RMK A01 T02750178  RH  055%=      5-min Rain = 0
KLO1 241651Z 17019KT 28/18 A2983 RMK A01 T02750178  RH  055%=      5-min Rain = 0
KLO1 241652Z 18018KT 28/18 A2983 RMK A01 T02760179  RH  055%=      5-min Rain = 0
KLO1 241653Z 18019KT 28/18 A2983 RMK A01 T02790179  RH  055%=      5-min Rain = 0
KLO1 241654Z 18015KT 28/18 A2983 RMK A01 T02790178  RH  054%=      5-min Rain = 0
KLO1 241655Z 16019KT 28/18 A2983 RMK A01 T02760177  RH  055%=      5-min Rain = 0
KLO1 241656Z 16020KT 28/18 A2983 RMK A01 T02760176  RH  054%=      5-min Rain = 0
KLO1 241657Z 16019KT 28/18 A2983 RMK A01 T02770176  RH  054%=      5-min Rain = 0
KLO1 241658Z 17018KT 28/18 A2983 RMK A01 T02790177  RH  054%=      5-min Rain = 0
KLO1 241659Z 16021KT 28/18 A2983 RMK A01 T02770177  RH  054%=      5-min Rain = 0
KLO1 241700Z 17019KT 28/18 A2983 RMK A01 T02770176  RH  054%=      5-min Rain = 0
KLO1 241701Z 15015KT 28/18 A2983 RMK A01 T02780177  RH  054%=      5-min Rain = 0
KLO1 241702Z 16016KT 28/18 A2983 RMK A01 T02770177  RH  055%=      5-min Rain = 0
KLO1 241703Z 16018KT 28/18 A2983 RMK A01 T02770178  RH  055%=      5-min Rain = 0
KLO1 241704Z 16018KT 28/18 A2983 RMK A01 T02800176  RH  053%=      5-min Rain = 0
KLO1 241705Z 16018KT 28/18 A2983 RMK A01 T02810176  RH  053%=      5-min Rain = 0
KLO1 241706Z 17020KT 28/18 A2983 RMK A01 T02820175  RH  052%=      5-min Rain = 0
KLO1 241707Z 17020KT 28/17 A2983 RMK A01 T02820173  RH  052%=      5-min Rain = 0
KLO1 241708Z 17015G22KT 28/17 A2983 RMK A01 T02800173  RH  052%=      5-min Rain = 0
KLO1 241709Z 16018KT 28/17 A2983 RMK A01 T02790174  RH  053%=      5-min Rain = 0
KLO1 241710Z 16015KT 28/18 A2983 RMK A01 T02810175  RH  053%=      5-min Rain = 0
KLO1 241711Z 15016KT 28/18 A2983 RMK A01 T02810175  RH  053%=      5-min Rain = 0
KLO1 241712Z 15014G22KT 28/18 A2983 RMK A01 T02840178  RH  053%=      5-min Rain = 0
KLO1 241713Z 16021G27KT 29/18 A2983 RMK A01 T02870177  RH  051%=      5-min Rain = 0
KLO1 241714Z 17021KT 29/18 A2982 RMK A01 T02880176  RH  051%=      5-min Rain = 0
KLO1 241715Z 17021KT 29/18 A2983 RMK A01 T02890175  RH  050%=      5-min Rain = 0
KLO1 241716Z 17016G22KT 29/17 A2983 RMK A01 T02890173  RH  050%=      5-min Rain = 0
KLO1 241717Z 17019G24KT 29/17 A2983 RMK A01 T02880174  RH  050%=      5-min Rain = 0
KLO1 241718Z 17020KT 29/18 A2983 RMK A01 T02900175  RH  050%=      5-min Rain = 0
KLO1 241719Z 15018KT 29/18 A2983 RMK A01 T02890175  RH  050%=      5-min Rain = 0
KLO1 241720Z 15017KT 29/17 A2983 RMK A01 T02880174  RH  050%=      5-min Rain = 0
KLO1 241721Z 16018KT 29/17 A2983 RMK A01 T02890173  RH  050%=      5-min Rain = 0
KLO1 241722Z 18015KT 29/17 A2983 RMK A01 T02900171  RH  049%=      5-min Rain = 0
KLO1 241723Z 18017G23KT 29/17 A2983 RMK A01 T02900170  RH  048%=      5-min Rain = 0
KLO1 241724Z 18019G25KT 29/17 A2983 RMK A01 T02920168  RH  047%=      5-min Rain = 0
KLO1 241725Z 19018G24KT 29/17 A2983 RMK A01 T02910166  RH  047%=      5-min Rain = 0
KLO1 241726Z 18016KT 29/16 A2983 RMK A01 T02860164  RH  048%=      5-min Rain = 0
KLO1 241727Z 17014G21KT 29/17 A2983 RMK A01 T02850167  RH  049%=      5-min Rain = 0
KLO1 241728Z 18019KT 29/17 A2983 RMK A01 T02880168  RH  048%=      5-min Rain = 0
KLO1 241729Z 18014G19KT 29/17 A2983 RMK A01 T02870166  RH  048%=      5-min Rain = 0
KLO1 241730Z 17017KT 29/17 A2983 RMK A01 T02870168  RH  049%=      5-min Rain = 0
KLO1 241731Z 17016KT 29/17 A2982 RMK A01 T02890168  RH  048%=      5-min Rain = 0
KLO1 241732Z 17017KT 29/17 A2982 RMK A01 T02900170  RH  048%=      5-min Rain = 0
KLO1 241733Z 16017KT 29/17 A2982 RMK A01 T02920170  RH  048%=      5-min Rain = 0
KLO1 241734Z 18015KT 29/17 A2982 RMK A01 T02930170  RH  048%=      5-min Rain = 0
KLO1 241735Z 17013KT 29/17 A2982 RMK A01 T02900169  RH  048%=      5-min Rain = 0
KLO1 241736Z 18014G22KT 29/17 A2982 RMK A01 T02890170  RH  049%=      5-min Rain = 0
KLO1 241737Z 17018KT 29/17 A2982 RMK A01 T02910169  RH  048%=      5-min Rain = 0
KLO1 241738Z 17014KT 29/17 A2982 RMK A01 T02930168  RH  047%=      5-min Rain = 0
KLO1 241739Z 16015KT 29/17 A2982 RMK A01 T02930168  RH  047%=      5-min Rain = 0
KLO1 241740Z 16017KT 29/17 A2982 RMK A01 T02940169  RH  047%=      5-min Rain = 0
KLO1 241741Z 19021KT 30/17 A2982 RMK A01 T02980166  RH  045%=      5-min Rain = 0
KLO1 241742Z 19015KT 30/16 A2982 RMK A01 T02970163  RH  044%=      5-min Rain = 0
KLO1 241743Z 19016KT 30/16 A2982 RMK A01 T02960163  RH  045%=      5-min Rain = 0
KLO1 241744Z 18018KT 30/16 A2982 RMK A01 T02960163  RH  045%=      5-min Rain = 0
KLO1 241745Z 18013KT 30/16 A2982 RMK A01 T02970163  RH  044%=      5-min Rain = 0
KLO1 241746Z 18019KT 30/17 A2982 RMK A01 T02980165  RH  045%=      5-min Rain = 0
KLO1 241747Z 18015G21KT 30/17 A2982 RMK A01 T03000165  RH  044%=      5-min Rain = 0
KLO1 241748Z 17014G19KT 30/16 A2982 RMK A01 T03020163  RH  043%=      5-min Rain = 0
KLO1 241749Z 17013KT 30/16 A2982 RMK A01 T03020163  RH  043%=      5-min Rain = 0
KLO1 241750Z 18018KT 30/16 A2982 RMK A01 T03020160  RH  042%=      5-min Rain = 0
KLO1 241751Z 17017KT 30/16 A2982 RMK A01 T03020163  RH  043%=      5-min Rain = 0
KLO1 241752Z 17013KT 30/16 A2982 RMK A01 T03000164  RH  044%=      5-min Rain = 0
KLO1 241753Z 16010KT 30/16 A2982 RMK A01 T02980164  RH  044%=      5-min Rain = 0
KLO1 241754Z 16013G19KT 30/17 A2982 RMK A01 T02980166  RH  045%=      5-min Rain = 0
KLO1 241755Z 16014KT 30/17 A2982 RMK A01 T03010167  RH  044%=      5-min Rain = 0
KLO1 241756Z 16017KT 30/17 A2982 RMK A01 T03010166  RH  044%=      5-min Rain = 0
KLO1 241757Z 17017KT 30/16 A2981 RMK A01 T03000162  RH  043%=      5-min Rain = 0
KLO1 241758Z 18016KT 30/16 A2981 RMK A01 T02970161  RH  044%=      5-min Rain = 0
KLO1 241759Z 19017KT 30/16 A2981 RMK A01 T02980158  RH  043%=      5-min Rain = 0
KLO1 241800Z 19012KT 30/16 A2981 RMK A01 T02990155  RH  042%=      5-min Rain = 0
KLO1 241801Z 17014KT 30/16 A2981 RMK A01 T02980155  RH  042%=      5-min Rain = 0
KLO1 241802Z 17013KT 30/15 A2981 RMK A01 T02980152  RH  041%=      5-min Rain = 0
KLO1 241803Z 18013KT 30/15 A2981 RMK A01 T02980152  RH  041%=      5-min Rain = 0
KLO1 241804Z 18016KT 30/15 A2981 RMK A01 T03010154  RH  041%=      5-min Rain = 0
KLO1 241805Z 19015G20KT 30/16 A2981 RMK A01 T03030156  RH  041%=      5-min Rain = 0
KLO1 241806Z 19017G23KT 30/16 A2981 RMK A01 T03040155  RH  041%=      5-min Rain = 0
KLO1 241807Z 18015KT 30/15 A2981 RMK A01 T03040154  RH  040%=      5-min Rain = 0
KLO1 241808Z 19016KT 30/15 A2981 RMK A01 T03030152  RH  040%=      5-min Rain = 0
KLO1 241809Z 18016KT 30/15 A2981 RMK A01 T03030152  RH  040%=      5-min Rain = 0
KLO1 241810Z 16013KT 30/15 A2981 RMK A01 T03020153  RH  040%=      5-min Rain = 0
KLO1 241811Z 17013KT 30/15 A2981 RMK A01 T03040153  RH  040%=      5-min Rain = 0
KLO1 241812Z 16013KT 31/16 A2981 RMK A01 T03080155  RH  040%=      5-min Rain = 0
KLO1 241813Z 19016KT 31/16 A2981 RMK A01 T03070156  RH  040%=      5-min Rain = 0
KLO1 241814Z 19015KT 31/16 A2981 RMK A01 T03070156  RH  040%=      5-min Rain = 0
KLO1 241815Z 17015KT 31/15 A2981 RMK A01 T03050154  RH  040%=      5-min Rain = 0
KLO1 241816Z 18015KT 30/15 A2981 RMK A01 T03040154  RH  040%=      5-min Rain = 0
KLO1 241817Z 17013KT 31/15 A2981 RMK A01 T03060154  RH  040%=      5-min Rain = 0
KLO1 241818Z 16013KT 31/16 A2981 RMK A01 T03100157  RH  040%=      5-min Rain = 0
KLO1 241819Z 17014KT 31/16 A2981 RMK A01 T03120156  RH  039%=      5-min Rain = 0
KLO1 241820Z 17014KT 31/15 A2981 RMK A01 T03100154  RH  039%=      5-min Rain = 0
KLO1 241821Z 17013KT 31/15 A298 RMK A01 T03070154  RH  039%=      5-min Rain = 0
KLO1 241822Z 19017KT 31/15 A298 RMK A01 T03080154  RH  039%=      5-min Rain = 0
KLO1 241823Z 19017KT 31/15 A298 RMK A01 T03100150  RH  038%=      5-min Rain = 0
KLO1 241824Z 19015KT 31/15 A298 RMK A01 T03100149  RH  038%=      5-min Rain = 0
KLO1 241825Z 20014KT 31/15 A298 RMK A01 T03100148  RH  037%=      5-min Rain = 0
KLO1 241826Z 18013KT 31/15 A298 RMK A01 T03100149  RH  038%=      5-min Rain = 0
KLO1 241827Z 18017KT 31/15 A298 RMK A01 T03090151  RH  038%=      5-min Rain = 0
KLO1 241828Z 17019KT 31/15 A298 RMK A01 T03120150  RH  037%=      5-min Rain = 0
KLO1 241829Z 17011KT 31/15 A298 RMK A01 T03120150  RH  037%=      5-min Rain = 0
KLO1 241830Z 16012KT 31/15 A298 RMK A01 T03110151  RH  038%=      5-min Rain = 0
KLO1 241831Z 16012KT 31/15 A298 RMK A01 T03100152  RH  038%=      5-min Rain = 0
KLO1 241832Z 18013G18KT 31/15 A298 RMK A01 T03130154  RH  038%=      5-min Rain = 0
KLO1 241833Z 17015KT 31/15 A298 RMK A01 T03130150  RH  037%=      5-min Rain = 0
KLO1 241834Z 17013KT 31/15 A298 RMK A01 T03120149  RH  037%=      5-min Rain = 0
KLO1 241835Z 17013KT 31/15 A298 RMK A01 T03120147  RH  037%=      5-min Rain = 0
KLO1 241836Z 18010KT 31/14 A298 RMK A01 T03140144  RH  036%=      5-min Rain = 0
KLO1 241837Z 21014KT 31/15 A298 RMK A01 T03140149  RH  037%=      5-min Rain = 0
KLO1 241838Z 19018KT 31/15 A298 RMK A01 T03140148  RH  037%=      5-min Rain = 0
KLO1 241839Z 18016KT 32/14 A298 RMK A01 T03150144  RH  035%=      5-min Rain = 0
KLO1 241840Z 18015KT 31/14 A298 RMK A01 T03120143  RH  036%=      5-min Rain = 0
KLO1 241841Z 18015KT 31/14 A298 RMK A01 T03100144  RH  036%=      5-min Rain = 0
KLO1 241842Z 19015KT 31/14 A298 RMK A01 T03100144  RH  037%=      5-min Rain = 0
KLO1 241843Z 19014KT 31/15 A298 RMK A01 T03110146  RH  037%=      5-min Rain = 0
KLO1 241844Z 19012KT 31/15 A2979 RMK A01 T03120148  RH  037%=      5-min Rain = 0
KLO1 241845Z 17012KT 31/15 A2979 RMK A01 T03110147  RH  037%=      5-min Rain = 0
KLO1 241846Z 16014KT 31/15 A2979 RMK A01 T03120146  RH  037%=      5-min Rain = 0
KLO1 241847Z 18011KT 31/15 A2979 RMK A01 T03130147  RH  037%=      5-min Rain = 0
KLO1 241848Z 18015KT 31/15 A2979 RMK A01 T03130150  RH  037%=      5-min Rain = 0
KLO1 241849Z 18015KT 32/15 A2979 RMK A01 T03150151  RH  037%=      5-min Rain = 0
KLO1 241850Z 18013KT 32/15 A2979 RMK A01 T03200151  RH  036%=      5-min Rain = 0
KLO1 241851Z 18014KT 32/15 A2979 RMK A01 T03210151  RH  036%=      5-min Rain = 0
KLO1 241852Z 16015KT 32/15 A2979 RMK A01 T03220152  RH  036%=      5-min Rain = 0
KLO1 241853Z 17014KT 32/15 A2979 RMK A01 T03220150  RH  035%=      5-min Rain = 0
KLO1 241854Z 18013KT 32/15 A2979 RMK A01 T03200149  RH  036%=      5-min Rain = 0
KLO1 241855Z 17011KT 32/15 A2979 RMK A01 T03230149  RH  035%=      5-min Rain = 0
KLO1 241856Z 18013KT 32/15 A2979 RMK A01 T03230148  RH  035%=      5-min Rain = 0
KLO1 241857Z 19011KT 32/15 A2979 RMK A01 T03190145  RH  035%=      5-min Rain = 0
KLO1 241858Z 20011KT 32/14 A2979 RMK A01 T03160144  RH  035%=      5-min Rain = 0
KLO1 241859Z 20009G15KT 31/15 A2979 RMK A01 T03140145  RH  036%=      5-min Rain = 0
KLO1 241900Z 16013G18KT 32/15 A2979 RMK A01 T03160147  RH  036%=      5-min Rain = 0
KLO1 241901Z 16013G18KT 32/15 A2978 RMK A01 T03170145  RH  035%=      5-min Rain = 0
KLO1 241902Z 16012G17KT 32/14 A2978 RMK A01 T03180141  RH  034%=      5-min Rain = 0
KLO1 241903Z 15011KT 32/14 A2978 RMK A01 T03180140  RH  034%=      5-min Rain = 0
KLO1 241904Z 16011G16KT 32/14 A2978 RMK A01 T03200143  RH  034%=      5-min Rain = 0
KLO1 241905Z 18014KT 32/15 A2978 RMK A01 T03240145  RH  034%=      5-min Rain = 0
KLO1 241906Z 21015KT 32/14 A2978 RMK A01 T03240142  RH  033%=      5-min Rain = 0
KLO1 241907Z 20012KT 32/14 A2978 RMK A01 T03220142  RH  034%=      5-min Rain = 0
KLO1 241908Z 18017G22KT 32/14 A2978 RMK A01 T03200142  RH  034%=      5-min Rain = 0
KLO1 241909Z 19015KT 32/14 A2978 RMK A01 T03190141  RH  034%=      5-min Rain = 0
KLO1 241910Z 19016KT 32/14 A2978 RMK A01 T03180142  RH  034%=      5-min Rain = 0
KLO1 241911Z 21015KT 32/14 A2978 RMK A01 T03220142  RH  034%=      5-min Rain = 0
KLO1 241912Z 20013KT 32/14 A2978 RMK A01 T03210141  RH  034%=      5-min Rain = 0
KLO1 241913Z 18012G17KT 32/14 A2978 RMK A01 T03190139  RH  034%=      5-min Rain = 0
KLO1 241914Z 16014KT 32/14 A2978 RMK A01 T03210141  RH  034%=      5-min Rain = 0
KLO1 241915Z 16014KT 32/14 A2978 RMK A01 T03200143  RH  034%=      5-min Rain = 0
KLO1 241916Z 16012KT 32/15 A2978 RMK A01 T03180146  RH  035%=      5-min Rain = 0
KLO1 241917Z 17014KT 32/15 A2978 RMK A01 T03190145  RH  035%=      5-min Rain = 0
KLO1 241918Z 20014KT 32/14 A2977 RMK A01 T03210140  RH  033%=      5-min Rain = 0
KLO1 241919Z 20016KT 33/14 A2978 RMK A01 T03250137  RH  032%=      5-min Rain = 0
KLO1 241920Z 19016KT 33/14 A2977 RMK A01 T03260136  RH  032%=      5-min Rain = 0
KLO1 241921Z 18013KT 33/14 A2978 RMK A01 T03250136  RH  032%=      5-min Rain = 0
KLO1 241922Z 19011KT 32/14 A2977 RMK A01 T03240135  RH  032%=      5-min Rain = 0
KLO1 241923Z 19009KT 32/13 A2977 RMK A01 T03210134  RH  032%=      5-min Rain = 0
KLO1 241924Z 18019KT 32/14 A2977 RMK A01 T03210137  RH  033%=      5-min Rain = 0
KLO1 241925Z 18015KT 32/14 A2977 RMK A01 T03230138  RH  033%=      5-min Rain = 0
KLO1 241926Z 17012KT 32/14 A2977 RMK A01 T03220139  RH  033%=      5-min Rain = 0
KLO1 241927Z 18012KT 32/14 A2977 RMK A01 T03230138  RH  033%=      5-min Rain = 0
KLO1 241928Z 18011KT 32/14 A2977 RMK A01 T03240139  RH  033%=      5-min Rain = 0
KLO1 241929Z 20013KT 33/14 A2977 RMK A01 T03270139  RH  032%=      5-min Rain = 0
KLO1 241930Z 19013G19KT 33/14 A2977 RMK A01 T03250139  RH  032%=      5-min Rain = 0
KLO1 241931Z 17014KT 32/14 A2977 RMK A01 T03230137  RH  032%=      5-min Rain = 0
KLO1 241932Z 18012KT 32/14 A2977 RMK A01 T03240138  RH  032%=      5-min Rain = 0
KLO1 241933Z 18015KT 33/14 A2977 RMK A01 T03260139  RH  032%=      5-min Rain = 0
KLO1 241934Z 19011G16KT 33/14 A2977 RMK A01 T03280140  RH  032%=      5-min Rain = 0
KLO1 241935Z 19012G17KT 33/14 A2977 RMK A01 T03300139  RH  032%=      5-min Rain = 0
KLO1 241936Z 19016KT 33/14 A2976 RMK A01 T03290139  RH  032%=      5-min Rain = 0
KLO1 241937Z 19014KT 33/14 A2976 RMK A01 T03270139  RH  032%=      5-min Rain = 0
KLO1 241938Z 18015KT 33/14 A2976 RMK A01 T03260139  RH  032%=      5-min Rain = 0
KLO1 241939Z 19016KT 33/14 A2976 RMK A01 T03290138  RH  031%=      5-min Rain = 0
KLO1 241940Z 18010KT 33/14 A2976 RMK A01 T03280137  RH  031%=      5-min Rain = 0
KLO1 241941Z 18012G18KT 33/14 A2976 RMK A01 T03260139  RH  032%=      5-min Rain = 0
KLO1 241942Z 18019KT 33/14 A2976 RMK A01 T03300137  RH  031%=      5-min Rain = 0
KLO1 241943Z 20019KT 33/13 A2976 RMK A01 T03320134  RH  030%=      5-min Rain = 0
KLO1 241944Z 19016KT 33/13 A2976 RMK A01 T03310132  RH  030%=      5-min Rain = 0
KLO1 241945Z 19014KT 33/13 A2976 RMK A01 T03300134  RH  031%=      5-min Rain = 0
KLO1 241946Z 19012KT 33/13 A2976 RMK A01 T03300134  RH  030%=      5-min Rain = 0
KLO1 241947Z 19014KT 33/13 A2976 RMK A01 T03300133  RH  030%=      5-min Rain = 0
KLO1 241948Z 18012KT 33/13 A2976 RMK A01 T03280134  RH  031%=      5-min Rain = 0
KLO1 241949Z 19013KT 33/14 A2976 RMK A01 T03280136  RH  031%=      5-min Rain = 0
KLO1 241950Z 20012KT 33/14 A2976 RMK A01 T03290136  RH  031%=      5-min Rain = 0
KLO1 241951Z 20011KT 33/13 A2975 RMK A01 T03260134  RH  031%=      5-min Rain = 0
KLO1 241952Z 17016KT 33/14 A2975 RMK A01 T03260135  RH  032%=      5-min Rain = 0
KLO1 241953Z 16015KT 33/14 A2975 RMK A01 T03290137  RH  031%=      5-min Rain = 0
KLO1 241954Z 16014G19KT 33/14 A2975 RMK A01 T03300137  RH  031%=      5-min Rain = 0
KLO1 241955Z 15014KT 33/14 A2975 RMK A01 T03300136  RH  031%=      5-min Rain = 0
KLO1 241956Z 16011KT 33/14 A2975 RMK A01 T03290135  RH  031%=      5-min Rain = 0
KLO1 241957Z 17011G16KT 33/14 A2975 RMK A01 T03270135  RH  031%=      5-min Rain = 0
KLO1 241958Z 16015KT 33/14 A2975 RMK A01 T03320136  RH  031%=      5-min Rain = 0
KLO1 241959Z 17014KT 34/13 A2975 RMK A01 T03350134  RH  030%=      5-min Rain = 0
KLO1 242000Z 18013KT 34/14 A2975 RMK A01 T03360136  RH  030%=      5-min Rain = 0
KLO1 242001Z 19011KT 33/13 A2975 RMK A01 T03320131  RH  030%=      5-min Rain = 0
KLO1 242002Z 19008KT 33/13 A2975 RMK A01 T03290133  RH  031%=      5-min Rain = 0
KLO1 242003Z 18011G17KT 33/13 A2975 RMK A01 T03270134  RH  031%=      5-min Rain = 0
KLO1 242004Z 16018KT 33/13 A2975 RMK A01 T03270132  RH  031%=      5-min Rain = 0
KLO1 242005Z 17016KT 33/13 A2975 RMK A01 T03300132  RH  030%=      5-min Rain = 0
KLO1 242006Z 16011KT 33/13 A2975 RMK A01 T03300134  RH  030%=      5-min Rain = 0
KLO1 242007Z 17009KT 33/13 A2975 RMK A01 T03300134  RH  030%=      5-min Rain = 0
KLO1 242008Z 18012KT 33/14 A2975 RMK A01 T03290135  RH  031%=      5-min Rain = 0
KLO1 242009Z 17015G24KT 33/13 A2974 RMK A01 T03310133  RH  030%=      5-min Rain = 0
KLO1 242010Z 17017KT 34/13 A2974 RMK A01 T03350133  RH  030%=      5-min Rain = 0
KLO1 242011Z 18015KT 34/13 A2974 RMK A01 T03380131  RH  029%=      5-min Rain = 0
KLO1 242012Z 19016KT 34/13 A2974 RMK A01 T03360130  RH  029%=      5-min Rain = 0
KLO1 242013Z 18017KT 34/13 A2974 RMK A01 T03350130  RH  029%=      5-min Rain = 0
KLO1 242014Z 19015KT 33/13 A2974 RMK A01 T03340129  RH  029%=      5-min Rain = 0
KLO1 242015Z 22011KT 33/13 A2974 RMK A01 T03340130  RH  029%=      5-min Rain = 0
KLO1 242016Z 19012KT 33/13 A2974 RMK A01 T03340130  RH  029%=      5-min Rain = 0
KLO1 242017Z 20009KT 33/13 A2974 RMK A01 T03320127  RH  029%=      5-min Rain = 0
KLO1 242018Z 19012KT 33/13 A2974 RMK A01 T03320130  RH  029%=      5-min Rain = 0
KLO1 242019Z 18016KT 34/13 A2974 RMK A01 T03370126  RH  028%=      5-min Rain = 0
KLO1 242020Z 19013G19KT 34/13 A2974 RMK A01 T03370125  RH  028%=      5-min Rain = 0
KLO1 242021Z 18016KT 34/13 A2974 RMK A01 T03360126  RH  028%=      5-min Rain = 0
KLO1 242022Z 17012KT 34/13 A2974 RMK A01 T03360128  RH  028%=      5-min Rain = 0
KLO1 242023Z 17010KT 33/13 A2974 RMK A01 T03330128  RH  029%=      5-min Rain = 0
KLO1 242024Z 18014KT 33/13 A2974 RMK A01 T03340128  RH  029%=      5-min Rain = 0
KLO1 242025Z 18010KT 33/13 A2974 RMK A01 T03340125  RH  028%=      5-min Rain = 0
KLO1 242026Z 18012G20KT 33/12 A2973 RMK A01 T03310124  RH  028%=      5-min Rain = 0
KLO1 242027Z 17012KT 33/13 A2973 RMK A01 T03340127  RH  029%=      5-min Rain = 0
KLO1 242028Z 18017KT 34/13 A2973 RMK A01 T03350126  RH  028%=      5-min Rain = 0
KLO1 242029Z 18012G17KT 33/13 A2973 RMK A01 T03340126  RH  028%=      5-min Rain = 0
KLO1 242030Z 18010KT 33/13 A2973 RMK A01 T03320127  RH  029%=      5-min Rain = 0
KLO1 242031Z 17009KT 33/13 A2973 RMK A01 T03330128  RH  029%=      5-min Rain = 0
KLO1 242032Z 18008KT 33/13 A2973 RMK A01 T03340126  RH  028%=      5-min Rain = 0
KLO1 242033Z 19009KT 33/13 A2972 RMK A01 T03340127  RH  029%=      5-min Rain = 0
KLO1 242034Z 21014KT 34/13 A2972 RMK A01 T03370127  RH  028%=      5-min Rain = 0
KLO1 242035Z 19013KT 34/12 A2972 RMK A01 T03400123  RH  027%=      5-min Rain = 0
KLO1 242036Z 17010KT 34/12 A2972 RMK A01 T03380122  RH  027%=      5-min Rain = 0
KLO1 242037Z 18012G17KT 34/12 A2972 RMK A01 T03360122  RH  027%=      5-min Rain = 0
KLO1 242038Z 19014KT 34/12 A2972 RMK A01 T03360124  RH  028%=      5-min Rain = 0
KLO1 242039Z 19013KT 34/12 A2972 RMK A01 T03370123  RH  027%=      5-min Rain = 0
KLO1 242040Z 18011KT 34/13 A2972 RMK A01 T03360125  RH  028%=      5-min Rain = 0
KLO1 242041Z 16016KT 34/13 A2972 RMK A01 T03380125  RH  027%=      5-min Rain = 0
KLO1 242042Z 16016G21KT 34/12 A2971 RMK A01 T03390124  RH  027%=      5-min Rain = 0
KLO1 242043Z 17015KT 34/13 A2971 RMK A01 T03360125  RH  028%=      5-min Rain = 0
KLO1 242044Z 16014KT 34/12 A2971 RMK A01 T03370124  RH  028%=      5-min Rain = 0
KLO1 242045Z 16010KT 34/12 A2971 RMK A01 T03350121  RH  027%=      5-min Rain = 0
KLO1 242046Z 15006KT 33/12 A2971 RMK A01 T03300123  RH  028%=      5-min Rain = 0
KLO1 242047Z 16006KT 33/12 A2971 RMK A01 T03280123  RH  029%=      5-min Rain = 0
KLO1 242048Z 17007KT 33/12 A2971 RMK A01 T03270122  RH  029%=      5-min Rain = 0
KLO1 242049Z 17013KT 33/12 A2971 RMK A01 T03280124  RH  029%=      5-min Rain = 0
KLO1 242050Z 18012KT 33/12 A2971 RMK A01 T03330123  RH  028%=      5-min Rain = 0
KLO1 242051Z 19012G19KT 34/12 A2971 RMK A01 T03350122  RH  028%=      5-min Rain = 0
KLO1 242052Z 20015G20KT 34/12 A2971 RMK A01 T03380122  RH  027%=      5-min Rain = 0
KLO1 242053Z 19012KT 34/12 A2971 RMK A01 T03350120  RH  027%=      5-min Rain = 0
KLO1 242054Z 17013KT 34/12 A2971 RMK A01 T03360118  RH  027%=      5-min Rain = 0
KLO1 242055Z 16013KT 34/12 A2971 RMK A01 T03380116  RH  026%=      5-min Rain = 0
KLO1 242056Z 17012KT 34/11 A2971 RMK A01 T03400114  RH  025%=      5-min Rain = 0
KLO1 242057Z 16008KT 34/11 A2971 RMK A01 T03360111  RH  025%=      5-min Rain = 0
KLO1 242058Z 15011G18KT 34/11 A2971 RMK A01 T03350114  RH  026%=      5-min Rain = 0
KLO1 242059Z 15012KT 34/12 A2971 RMK A01 T03390116  RH  026%=      5-min Rain = 0
KLO1 242100Z 14007KT 34/12 A2971 RMK A01 T03380115  RH  026%=      5-min Rain = 0
KLO1 242101Z 14009KT 34/12 A2971 RMK A01 T03370115  RH  026%=      5-min Rain = 0
KLO1 242102Z 14012KT 34/11 A297 RMK A01 T03360114  RH  026%=      5-min Rain = 0
KLO1 242103Z 15015KT 34/12 A297 RMK A01 T03400118  RH  026%=      5-min Rain = 0
KLO1 242104Z 16012KT 35/12 A297 RMK A01 T03450119  RH  026%=      5-min Rain = 0
KLO1 242105Z 18011KT 34/12 A297 RMK A01 T03430118  RH  026%=      5-min Rain = 0
KLO1 242106Z 18011KT 34/12 A297 RMK A01 T03380118  RH  026%=      5-min Rain = 0
KLO1 242107Z 18013KT 34/12 A297 RMK A01 T03380118  RH  026%=      5-min Rain = 0
KLO1 242108Z 17013KT 34/11 A297 RMK A01 T03420113  RH  025%=      5-min Rain = 0
KLO1 242109Z 17014KT 34/11 A297 RMK A01 T03430114  RH  025%=      5-min Rain = 0
KLO1 242110Z 16013KT 34/11 A297 RMK A01 T03390113  RH  025%=      5-min Rain = 0
KLO1 242111Z 16012KT 34/11 A297 RMK A01 T03360114  RH  026%=      5-min Rain = 0
KLO1 242112Z 16014KT 34/12 A297 RMK A01 T03350115  RH  026%=      5-min Rain = 0
KLO1 242113Z 17013KT 34/11 A297 RMK A01 T03350114  RH  026%=      5-min Rain = 0
KLO1 242114Z 17010KT 34/11 A297 RMK A01 T03350114  RH  026%=      5-min Rain = 0
KLO1 242115Z 15013KT 33/11 A297 RMK A01 T03340113  RH  026%=      5-min Rain = 0
KLO1 242116Z 15013KT 34/12 A297 RMK A01 T03360115  RH  026%=      5-min Rain = 0
KLO1 242117Z 16017KT 34/11 A297 RMK A01 T03390114  RH  025%=      5-min Rain = 0
KLO1 242118Z 17016KT 34/11 A297 RMK A01 T03400111  RH  025%=      5-min Rain = 0
KLO1 242119Z 19014KT 34/11 A297 RMK A01 T03390109  RH  025%=      5-min Rain = 0
KLO1 242120Z 19012KT 34/11 A2969 RMK A01 T03350110  RH  025%=      5-min Rain = 0
KLO1 242121Z 19014KT 33/11 A297 RMK A01 T03340111  RH  026%=      5-min Rain = 0
KLO1 242122Z 19014KT 34/11 A297 RMK A01 T03350113  RH  026%=      5-min Rain = 0
KLO1 242123Z 18014KT 33/11 A297 RMK A01 T03340114  RH  026%=      5-min Rain = 0
KLO1 242124Z 18012KT 33/12 A297 RMK A01 T03320116  RH  027%=      5-min Rain = 0
KLO1 242125Z 18008KT 33/12 A297 RMK A01 T03300117  RH  027%=      5-min Rain = 0
KLO1 242126Z 18012KT 33/12 A297 RMK A01 T03290117  RH  028%=      5-min Rain = 0
KLO1 242127Z 16010KT 33/12 A297 RMK A01 T03320116  RH  027%=      5-min Rain = 0
KLO1 242128Z 16011G16KT 33/12 A2969 RMK A01 T03320115  RH  027%=      5-min Rain = 0
KLO1 242129Z 17011KT 33/12 A2969 RMK A01 T03320115  RH  027%=      5-min Rain = 0
KLO1 242130Z 17011KT 33/11 A2969 RMK A01 T03310114  RH  027%=      5-min Rain = 0
KLO1 242131Z 18010KT 33/11 A2969 RMK A01 T03280112  RH  027%=      5-min Rain = 0
KLO1 242132Z 16009KT 33/11 A2969 RMK A01 T03280112  RH  027%=      5-min Rain = 0
KLO1 242133Z 17008KT 33/11 A2969 RMK A01 T03260111  RH  027%=      5-min Rain = 0
KLO1 242134Z 18010KT 33/11 A2969 RMK A01 T03260110  RH  027%=      5-min Rain = 0
KLO1 242135Z 18012KT 33/11 A2969 RMK A01 T03280109  RH  026%=      5-min Rain = 0
KLO1 242136Z 21011KT 33/11 A2969 RMK A01 T03290110  RH  026%=      5-min Rain = 0
KLO1 242137Z 18014KT 33/11 A2969 RMK A01 T03290109  RH  026%=      5-min Rain = 0
KLO1 242138Z 17014KT 33/11 A2969 RMK A01 T03280106  RH  026%=      5-min Rain = 0
KLO1 242139Z 18012KT 33/11 A2969 RMK A01 T03280105  RH  026%=      5-min Rain = 0
KLO1 242140Z 18013KT 33/11 A2969 RMK A01 T03270105  RH  026%=      5-min Rain = 0
KLO1 242141Z 16012KT 33/11 A2969 RMK A01 T03280105  RH  026%=      5-min Rain = 0
KLO1 242142Z 17015KT 33/11 A2969 RMK A01 T03300105  RH  025%=      5-min Rain = 0
KLO1 242143Z 16015KT 33/10 A2969 RMK A01 T03300103  RH  025%=      5-min Rain = 0
KLO1 242144Z 16013KT 33/10 A2969 RMK A01 T03280103  RH  025%=      5-min Rain = 0
KLO1 242145Z 15013KT 33/10 A2969 RMK A01 T03270104  RH  026%=      5-min Rain = 0
KLO1 242146Z 17014KT 33/10 A2969 RMK A01 T03270104  RH  026%=      5-min Rain = 0
KLO1 242147Z 16014KT 33/10 A2969 RMK A01 T03280104  RH  025%=      5-min Rain = 0
KLO1 242148Z 17013KT 33/10 A2969 RMK A01 T03270102  RH  025%=      5-min Rain = 0
KLO1 242149Z 18012KT 33/10 A2969 RMK A01 T03260101  RH  025%=      5-min Rain = 0
KLO1 242150Z 17011KT 33/10 A2969 RMK A01 T03250102  RH  025%=      5-min Rain = 0
KLO1 242151Z 17011KT 33/10 A2969 RMK A01 T03250102  RH  025%=      5-min Rain = 0
KLO1 242152Z 18012KT 33/10 A2969 RMK A01 T03250102  RH  025%=      5-min Rain = 0
KLO1 242153Z 18013KT 33/10 A2969 RMK A01 T03250102  RH  025%=      5-min Rain = 0
KLO1 242154Z 18013KT 33/10 A2969 RMK A01 T03250102  RH  025%=      5-min Rain = 0
KLO1 242155Z 17012KT 33/10 A2969 RMK A01 T03250102  RH  025%=      5-min Rain = 0
KLO1 242156Z 17011KT 33/10 A2969 RMK A01 T03250102  RH  025%=      5-min Rain = 0
KLO1 242157Z 17012KT 33/10 A2968 RMK A01 T03250102  RH  025%=      5-min Rain = 0
KLO1 242158Z 19011KT 33/10 A2968 RMK A01 T03260102  RH  025%=      5-min Rain = 0
KLO1 242159Z 19016KT 33/11 A2968 RMK A01 T03260105  RH  026%=      5-min Rain = 0
KLO1 242200Z 18017KT 32/13 A2969 RMK A01 T03240130  RH  031%=      5-min Rain = 0
KLO1 242201Z 17016KT 32/14 A2969 RMK A01 T03220136  RH  033%=      5-min Rain = 0
KLO1 242202Z 18015KT 32/14 A2968 RMK A01 T03190140  RH  034%=      5-min Rain = 0
KLO1 242203Z 17018G24KT 32/15 A2968 RMK A01 T03180146  RH  035%=      5-min Rain = 0
KLO1 242204Z 17021KT 32/16 A2968 RMK A01 T03160155  RH  038%=      5-min Rain = 0
KLO1 242205Z 17018KT 31/16 A2968 RMK A01 T03140157  RH  039%=      5-min Rain = 0
KLO1 242206Z 17018KT 31/16 A2968 RMK A01 T03130157  RH  039%=      5-min Rain = 0
KLO1 242207Z 17018KT 31/16 A2968 RMK A01 T03120160  RH  040%=      5-min Rain = 0
KLO1 242208Z 17016G23KT 31/16 A2968 RMK A01 T03110161  RH  041%=      5-min Rain = 0
KLO1 242209Z 18022KT 31/16 A2968 RMK A01 T03100162  RH  041%=      5-min Rain = 0
KLO1 242210Z 17019KT 31/16 A2968 RMK A01 T03090162  RH  041%=      5-min Rain = 0
KLO1 242211Z 17018KT 31/16 A2968 RMK A01 T03080163  RH  042%=      5-min Rain = 0
KLO1 242212Z 17019G24KT 31/16 A2968 RMK A01 T03080164  RH  042%=      5-min Rain = 0
KLO1 242213Z 18023KT 31/16 A2968 RMK A01 T03070164  RH  042%=      5-min Rain = 0
KLO1 242214Z 17022G27KT 31/17 A2969 RMK A01 T03060165  RH  043%=      5-min Rain = 0
KLO1 242215Z 17022G27KT 31/17 A2969 RMK A01 T03050165  RH  043%=      5-min Rain = 0
KLO1 242216Z 17022KT 31/17 A2969 RMK A01 T03050165  RH  043%=      5-min Rain = 0
KLO1 242217Z 17022G28KT 30/17 A297 RMK A01 T03040165  RH  043%=      5-min Rain = 0
KLO1 242218Z 17025KT 30/17 A297 RMK A01 T03040166  RH  043%=      5-min Rain = 0
KLO1 242219Z 17023KT 30/17 A297 RMK A01 T03030166  RH  044%=      5-min Rain = 0
KLO1 242220Z 17020KT 30/17 A297 RMK A01 T03020167  RH  044%=      5-min Rain = 0
KLO1 242221Z 18022G28KT 30/17 A297 RMK A01 T03020167  RH  044%=      5-min Rain = 0
KLO1 242222Z 18023G29KT 30/17 A297 RMK A01 T03020167  RH  044%=      5-min Rain = 0
KLO1 242223Z 18021KT 30/17 A297 RMK A01 T03010167  RH  044%=      5-min Rain = 0
KLO1 242224Z 17025KT 30/17 A297 RMK A01 T03000167  RH  045%=      5-min Rain = 0
KLO1 242225Z 17022G29KT 30/17 A297 RMK A01 T02990168  RH  045%=      5-min Rain = 0
KLO1 242226Z 17023G29KT 30/17 A297 RMK A01 T02980168  RH  046%=      5-min Rain = 0
KLO1 242227Z 18025G31KT 30/17 A2969 RMK A01 T02970168  RH  046%=      5-min Rain = 0
KLO1 242228Z 17027KT 30/17 A2969 RMK A01 T02960167  RH  046%=      5-min Rain = 0
KLO1 242229Z 18025KT 30/17 A2969 RMK A01 T02950167  RH  046%=      5-min Rain = 0
KLO1 242230Z 17023KT 29/17 A2969 RMK A01 T02940167  RH  046%=      5-min Rain = 0
KLO1 242231Z 17022KT 29/17 A2969 RMK A01 T02940167  RH  046%=      5-min Rain = 0
KLO1 242232Z 17024KT 29/17 A2969 RMK A01 T02940166  RH  046%=      5-min Rain = 0
KLO1 242233Z 17027KT 29/17 A2969 RMK A01 T02940166  RH  046%=      5-min Rain = 0
KLO1 242234Z 17025KT 29/17 A2969 RMK A01 T02930166  RH  046%=      5-min Rain = 0
KLO1 242235Z 19028G34KT 29/16 A297 RMK A01 T02920157  RH  044%=      5-min Rain = 0
KLO1 242236Z 19027G32KT 29/11 A297 RMK A01 T02890114  RH  034%=      5-min Rain = 0
KLO1 242237Z 19027KT 29/09 A297 RMK A01 T02860093  RH  030%=      5-min Rain = 0
KLO1 242238Z 19026G32KT 28/09 A297 RMK A01 T02830089  RH  030%=      5-min Rain = 0
KLO1 242239Z 19028KT 28/09 A297 RMK A01 T02810085  RH  029%=      5-min Rain = 0
KLO1 242240Z 20023KT 28/09 A297 RMK A01 T02780085  RH  030%=      5-min Rain = 0
KLO1 242241Z 19021G26KT 28/09 A297 RMK A01 T02750089  RH  031%=      5-min Rain = 0
KLO1 242242Z 20024G29KT 27/09 A297 RMK A01 T02720089  RH  032%=      5-min Rain = 0
KLO1 242243Z 19024KT 27/09 A297 RMK A01 T02680092  RH  033%=      5-min Rain = 0
KLO1 242244Z 19023KT 26/10 A297 RMK A01 T02620096  RH  035%=      5-min Rain = 0
KLO1 242245Z 20023KT 26/10 A297 RMK A01 T02570101  RH  037%=      5-min Rain = 0
KLO1 242246Z 21022KT 25/10 A297 RMK A01 T02520104  RH  039%=      5-min Rain = 0
KLO1 242247Z 21028KT 25/10 A2969 RMK A01 T02500100  RH  039%=      5-min Rain = 0
KLO1 242248Z 21027KT 25/10 A2969 RMK A01 T02510096  RH  037%=      5-min Rain = 0
KLO1 242249Z 21024KT 25/10 A2969 RMK A01 T02520100  RH  038%=      5-min Rain = 0
KLO1 242250Z 21024KT 25/10 A2969 RMK A01 T02500102  RH  039%=      5-min Rain = 0
KLO1 242251Z 21022KT 25/10 A2969 RMK A01 T02490102  RH  039%=      5-min Rain = 0
KLO1 242252Z 21022KT 25/10 A2969 RMK A01 T02490102  RH  039%=      5-min Rain = 0
KLO1 242253Z 21022KT 25/10 A2969 RMK A01 T02510101  RH  039%=      5-min Rain = 0
KLO1 242254Z 21021KT 25/10 A2968 RMK A01 T02530097  RH  037%=      5-min Rain = 0
KLO1 242255Z 21020KT 26/09 A2968 RMK A01 T02550094  RH  036%=      5-min Rain = 0
KLO1 242256Z 20021KT 26/09 A2968 RMK A01 T02560093  RH  036%=      5-min Rain = 0
KLO1 242257Z 21023KT 26/09 A2968 RMK A01 T02560092  RH  036%=      5-min Rain = 0
KLO1 242258Z 21022KT 26/09 A2968 RMK A01 T02560089  RH  035%=      5-min Rain = 0
KLO1 242259Z 21021KT 26/08 A2968 RMK A01 T02570084  RH  033%=      5-min Rain = 0
KLO1 242300Z 21022KT 26/08 A2967 RMK A01 T02580083  RH  033%=      5-min Rain = 0
KLO1 242301Z 20022KT 26/08 A2967 RMK A01 T02580081  RH  032%=      5-min Rain = 0
KLO1 242302Z 20019KT 26/08 A2968 RMK A01 T02590083  RH  033%=      5-min Rain = 0
KLO1 242303Z 19018KT 26/09 A2968 RMK A01 T02570085  RH  033%=      5-min Rain = 0
KLO1 242304Z 19016KT 26/09 A2968 RMK A01 T02560085  RH  034%=      5-min Rain = 0
KLO1 242305Z 18016KT 25/09 A2968 RMK A01 T02540087  RH  035%=      5-min Rain = 0
KLO1 242306Z 16014KT 25/09 A2968 RMK A01 T02530088  RH  035%=      5-min Rain = 0
KLO1 242307Z 15013KT 25/09 A2968 RMK A01 T02520086  RH  035%=      5-min Rain = 0
KLO1 242308Z 13013KT 25/08 A2968 RMK A01 T02530081  RH  033%=      5-min Rain = 0
KLO1 242309Z 13014G20KT 26/08 A2967 RMK A01 T02550076  RH  032%=      5-min Rain = 0
KLO1 242310Z 15012KT 26/07 A2967 RMK A01 T02570074  RH  031%=      5-min Rain = 0
KLO1 242311Z 17015KT 26/07 A2967 RMK A01 T02590072  RH  030%=      5-min Rain = 0
KLO1 242312Z 18020KT 26/06 A2966 RMK A01 T02620064  RH  028%=      5-min Rain = 0
KLO1 242313Z 17022KT 27/06 A2966 RMK A01 T02660059  RH  027%=      5-min Rain = 0
KLO1 242314Z 17024KT 27/07 A2965 RMK A01 T02680066  RH  028%=      5-min Rain = 0
KLO1 242315Z 16021G28KT 27/07 A2965 RMK A01 T02660070  RH  029%=      5-min Rain = 0
KLO1 242316Z 16025KT 27/06 A2964 RMK A01 T02650064  RH  028%=      5-min Rain = 0
KLO1 242317Z 16025KT 27/06 A2964 RMK A01 T02670059  RH  026%=      5-min Rain = 0
KLO1 242318Z 16026KT 27/05 A2964 RMK A01 T02700053  RH  025%=      5-min Rain = 0
KLO1 242319Z 16025G30KT 27/05 A2964 RMK A01 T02730052  RH  024%=      5-min Rain = 0
KLO1 242320Z 16022KT 27/05 A2964 RMK A01 T02740052  RH  024%=      5-min Rain = 0
KLO1 242321Z 17023KT 27/05 A2964 RMK A01 T02740052  RH  024%=      5-min Rain = 0
KLO1 242322Z 18023KT 28/04 A2964 RMK A01 T02760044  RH  023%=      5-min Rain = 0
KLO1 242323Z 18025KT 28/05 A2964 RMK A01 T02800047  RH  023%=      5-min Rain = 0
KLO1 242324Z 17021KT 28/05 A2964 RMK A01 T02810051  RH  023%=      5-min Rain = 0
KLO1 242325Z 18018KT 28/05 A2964 RMK A01 T02800053  RH  024%=      5-min Rain = 0
KLO1 242326Z 17022KT 28/05 A2964 RMK A01 T02800050  RH  023%=      5-min Rain = 0
KLO1 242327Z 17026KT 28/04 A2963 RMK A01 T02830043  RH  022%=      5-min Rain = 0
KLO1 242328Z 17025KT 29/05 A2963 RMK A01 T02860047  RH  022%=      5-min Rain = 0
KLO1 242329Z 17024G32KT 29/04 A2963 RMK A01 T02860043  RH  021%=      5-min Rain = 0
KLO1 242330Z 17019G24KT 29/04 A2964 RMK A01 T02890043  RH  021%=      5-min Rain = 0
KLO1 242331Z 17019G24KT 29/05 A2963 RMK A01 T02900047  RH  021%=      5-min Rain = 0
KLO1 242332Z 18021KT 29/05 A2963 RMK A01 T02880048  RH  022%=      5-min Rain = 0
KLO1 242333Z 18021KT 29/05 A2964 RMK A01 T02870046  RH  022%=      5-min Rain = 0
KLO1 242334Z 18019KT 29/05 A2964 RMK A01 T02870048  RH  022%=      5-min Rain = 0
KLO1 242335Z 19020KT 29/05 A2964 RMK A01 T02870046  RH  022%=      5-min Rain = 0
KLO1 242336Z 19022KT 29/04 A2964 RMK A01 T02880040  RH  021%=      5-min Rain = 0
KLO1 242337Z 19025G32KT 29/04 A2964 RMK A01 T02900040  RH  020%=      5-min Rain = 0
KLO1 242338Z 19028KT 29/04 A2964 RMK A01 T02890042  RH  021%=      5-min Rain = 0
KLO1 242339Z 18026KT 29/04 A2964 RMK A01 T02860042  RH  021%=      5-min Rain = 0
KLO1 242340Z 18026KT 29/04 A2964 RMK A01 T02850042  RH  021%=      5-min Rain = 0
KLO1 242341Z 18023KT 28/04 A2964 RMK A01 T02840043  RH  021%=      5-min Rain = 0
KLO1 242342Z 17019G24KT 28/05 A2964 RMK A01 T02830048  RH  022%=      5-min Rain = 0
KLO1 242343Z 17018KT 28/05 A2964 RMK A01 T02800051  RH  023%=      5-min Rain = 0
KLO1 242344Z 16018KT 28/05 A2964 RMK A01 T02780051  RH  023%=      5-min Rain = 0
KLO1 242345Z 16016G21KT 28/05 A2965 RMK A01 T02770053  RH  024%=      5-min Rain = 0
KLO1 242346Z 17013G19KT 28/04 A2964 RMK A01 T02780038  RH  021%=      5-min Rain = 0
KLO1 242347Z 17013KT 28/04 A2965 RMK A01 T02810044  RH  022%=      5-min Rain = 0
KLO1 242348Z 17021G29KT 28/04 A2965 RMK A01 T02810040  RH  021%=      5-min Rain = 0
KLO1 242349Z 16020G27KT 28/03 A2965 RMK A01 T02830033  RH  020%=      5-min Rain = 0
KLO1 242350Z 17019G25KT 29/03 A2964 RMK A01 T02850034  RH  020%=      5-min Rain = 0
KLO1 242351Z 18023KT 29/03 A2965 RMK A01 T02850034  RH  020%=      5-min Rain = 0
KLO1 242352Z 18025KT 29/03 A2965 RMK A01 T02860030  RH  019%=      5-min Rain = 0
KLO1 242353Z 17023KT 29/03 A2965 RMK A01 T02870032  RH  020%=      5-min Rain = 0
KLO1 242354Z 18021G26KT 29/04 A2965 RMK A01 T02860035  RH  020%=      5-min Rain = 0
KLO1 242355Z 19022KT 29/04 A2965 RMK A01 T02850036  RH  020%=      5-min Rain = 0
KLO1 242356Z 18019G24KT 28/04 A2965 RMK A01 T02840036  RH  020%=      5-min Rain = 0
KLO1 242357Z 18021KT 28/04 A2965 RMK A01 T02840036  RH  020%=      5-min Rain = 0
KLO1 242358Z 18025KT 28/04 A2964 RMK A01 T02830037  RH  021%=      5-min Rain = 0
KLO1 242359Z 18024KT 28/04 A2964 RMK A01 T02830035  RH  020%=      5-min Rain = 0
KLO1 250000Z 18024G29KT 28/03 A2964 RMK A01 T02840031  RH  020%=      5-min Rain = 0
KLO1 250001Z 18023KT 29/03 A2965 RMK A01 T02850029  RH  019%=      5-min Rain = 0
KLO1 250002Z 18023KT 29/03 A2965 RMK A01 T02860031  RH  020%=      5-min Rain = 0
KLO1 250003Z 18024KT 29/03 A2965 RMK A01 T02860030  RH  019%=      5-min Rain = 0
KLO1 250004Z 18023KT 29/03 A2966 RMK A01 T02860033  RH  020%=      5-min Rain = 0
KLO1 250005Z 18023KT 28/04 A2966 RMK A01 T02840037  RH  020%=      5-min Rain = 0
KLO1 250006Z 19021KT 28/04 A2966 RMK A01 T02830037  RH  021%=      5-min Rain = 0
KLO1 250007Z 19021KT 28/04 A2966 RMK A01 T02810040  RH  021%=      5-min Rain = 0
KLO1 250008Z 19020G25KT 28/04 A2966 RMK A01 T02790042  RH  022%=      5-min Rain = 0
KLO1 250009Z 18020KT 28/04 A2966 RMK A01 T02790037  RH  021%=      5-min Rain = 0
KLO1 250010Z 19020KT 28/04 A2967 RMK A01 T02800038  RH  021%=      5-min Rain = 0
KLO1 250011Z 19022G27KT 28/04 A2967 RMK A01 T02800042  RH  022%=      5-min Rain = 0
KLO1 250012Z 19021KT 28/05 A2967 RMK A01 T02790045  RH  022%=      5-min Rain = 0
KLO1 250013Z 19022KT 28/05 A2967 RMK A01 T02780046  RH  023%=      5-min Rain = 0
KLO1 250014Z 19020KT 28/05 A2967 RMK A01 T02770048  RH  023%=      5-min Rain = 0
KLO1 250015Z 19018KT 28/05 A2967 RMK A01 T02760048  RH  023%=      5-min Rain = 0
KLO1 250016Z 20017KT 28/05 A2968 RMK A01 T02750049  RH  024%=      5-min Rain = 0
KLO1 250017Z 20016KT 28/05 A2968 RMK A01 T02750050  RH  024%=      5-min Rain = 0
KLO1 250018Z 20017G22KT 28/05 A2968 RMK A01 T02750047  RH  023%=      5-min Rain = 0
KLO1 250019Z 20018KT 28/05 A2969 RMK A01 T02750047  RH  023%=      5-min Rain = 0
KLO1 250020Z 20016KT 28/05 A2969 RMK A01 T02750052  RH  024%=      5-min Rain = 0
KLO1 250021Z 20023G28KT 27/05 A2969 RMK A01 T02740051  RH  024%=      5-min Rain = 0
KLO1 250022Z 19024KT 27/05 A2969 RMK A01 T02730048  RH  024%=      5-min Rain = 0
KLO1 250023Z 19026KT 28/05 A2969 RMK A01 T02750045  RH  023%=      5-min Rain = 0
KLO1 250024Z 19025KT 28/05 A2969 RMK A01 T02750045  RH  023%=      5-min Rain = 0
KLO1 250025Z 18026KT 28/05 A2969 RMK A01 T02750046  RH  023%=      5-min Rain = 0
KLO1 250026Z 18024KT 28/05 A2969 RMK A01 T02750045  RH  023%=      5-min Rain = 0
KLO1 250027Z 17018G23KT 27/05 A2969 RMK A01 T02740047  RH  023%=      5-min Rain = 0
KLO1 250028Z 17020KT 27/05 A2969 RMK A01 T02730050  RH  024%=      5-min Rain = 0
KLO1 250029Z 17020KT 27/05 A2969 RMK A01 T02720048  RH  024%=      5-min Rain = 0
KLO1 250030Z 16018KT 27/04 A2969 RMK A01 T02730044  RH  023%=      5-min Rain = 0
KLO1 250031Z 16018KT 27/05 A2969 RMK A01 T02730046  RH  023%=      5-min Rain = 0
KLO1 250032Z 16021KT 27/05 A2969 RMK A01 T02730047  RH  024%=      5-min Rain = 0
KLO1 250033Z 16022G28KT 27/05 A2969 RMK A01 T02730048  RH  024%=      5-min Rain = 0
KLO1 250034Z 17025KT 27/04 A2969 RMK A01 T02730041  RH  023%=      5-min Rain = 0
KLO1 250035Z 17019G24KT 28/04 A297 RMK A01 T02770038  RH  022%=      5-min Rain = 0
KLO1 250036Z 18013KT 28/04 A297 RMK A01 T02790038  RH  021%=      5-min Rain = 0
KLO1 250037Z 17015G23KT 28/04 A297 RMK A01 T02790041  RH  022%=      5-min Rain = 0
KLO1 250038Z 17018KT 28/04 A2969 RMK A01 T02770042  RH  022%=      5-min Rain = 0
KLO1 250039Z 17020G25KT 28/04 A2969 RMK A01 T02750043  RH  023%=      5-min Rain = 0
KLO1 250040Z 17021KT 27/04 A2969 RMK A01 T02730043  RH  023%=      5-min Rain = 0
KLO1 250041Z 18019G26KT 27/04 A2969 RMK A01 T02730043  RH  023%=      5-min Rain = 0
KLO1 250042Z 16013KT 27/05 A2969 RMK A01 T02730046  RH  023%=      5-min Rain = 0
KLO1 250043Z 16016G21KT 27/05 A2969 RMK A01 T02710047  RH  024%=      5-min Rain = 0
KLO1 250044Z 17017G24KT 27/05 A2969 RMK A01 T02700046  RH  024%=      5-min Rain = 0
KLO1 250045Z 17019G25KT 27/04 A297 RMK A01 T02720041  RH  023%=      5-min Rain = 0
KLO1 250046Z 18020G30KT 27/04 A297 RMK A01 T02740043  RH  023%=      5-min Rain = 0
KLO1 250047Z 18023G28KT 27/05 A297 RMK A01 T02730050  RH  024%=      5-min Rain = 0
KLO1 250048Z 18019KT 27/05 A297 RMK A01 T02690053  RH  025%=      5-min Rain = 0
KLO1 250049Z 18022G27KT 27/06 A2971 RMK A01 T02660058  RH  026%=      5-min Rain = 0
KLO1 250050Z 17018G23KT 26/06 A2971 RMK A01 T02630060  RH  027%=      5-min Rain = 0
KLO1 250051Z 18015KT 26/07 A2971 RMK A01 T02610065  RH  029%=      5-min Rain = 0
KLO1 250052Z 20019G24KT 26/07 A297 RMK A01 T02580074  RH  031%=      5-min Rain = 0
KLO1 250053Z 20029G37KT 26/08 A297 RMK A01 T02550078  RH  032%=      5-min Rain = 0
KLO1 250054Z 20030G35KT 25/08 A297 RMK A01 T02530075  RH  032%=      5-min Rain = 0
KLO1 250055Z 21027KT 25/08 A297 RMK A01 T02520075  RH  032%=      5-min Rain = 0
KLO1 250056Z 22028KT 25/08 A297 RMK A01 T02520076  RH  033%=      5-min Rain = 0
KLO1 250057Z 22023KT 25/08 A297 RMK A01 T02490083  RH  035%=      5-min Rain = 0
KLO1 250058Z 21020G28KT 25/08 A297 RMK A01 T02460081  RH  035%=      5-min Rain = 0
KLO1 250059Z 22014KT 25/09 A297 RMK A01 T02450086  RH  036%=      5-min Rain = 0
KLO1 250100Z 20027G35KT 24/08 A297 RMK A01 T02430084  RH  036%=      5-min Rain = 0
KLO1 250101Z 20025G32KT 24/08 A2969 RMK A01 T02430081  RH  036%=      5-min Rain = 0
KLO1 250102Z 21024KT 24/08 A297 RMK A01 T02440082  RH  036%=      5-min Rain = 0
KLO1 250103Z 20027G34KT 24/09 A297 RMK A01 T02410091  RH  038%=      5-min Rain = 0
KLO1 250104Z 20027KT 24/09 A297 RMK A01 T02380087  RH  038%=      5-min Rain = 0
KLO1 250105Z 20026G31KT 24/09 A297 RMK A01 T02380088  RH  038%=      5-min Rain = 0
KLO1 250106Z 20027KT 24/09 A297 RMK A01 T02370087  RH  038%=      5-min Rain = 0
KLO1 250107Z 19023G29KT 24/09 A297 RMK A01 T02370088  RH  039%=      5-min Rain = 0
KLO1 250108Z 19025KT 24/09 A297 RMK A01 T02370088  RH  039%=      5-min Rain = 0
KLO1 250109Z 19025G30KT 24/09 A2969 RMK A01 T02370088  RH  039%=      5-min Rain = 0
KLO1 250110Z 18025G32KT 24/09 A2969 RMK A01 T02360090  RH  039%=      5-min Rain = 0
KLO1 250111Z 18025G31KT 24/09 A2969 RMK A01 T02350088  RH  039%=      5-min Rain = 0
KLO1 250112Z 18026G31KT 24/08 A2969 RMK A01 T02360082  RH  037%=      5-min Rain = 0
KLO1 250113Z 17021KT 24/08 A2969 RMK A01 T02380083  RH  037%=      5-min Rain = 0
KLO1 250114Z 18024G34KT 24/08 A2968 RMK A01 T02410076  RH  035%=      5-min Rain = 0
KLO1 250115Z 18025KT 24/08 A2968 RMK A01 T02440078  RH  035%=      5-min Rain = 0
KLO1 250116Z 18024G32KT 24/08 A2968 RMK A01 T02430080  RH  035%=      5-min Rain = 0
KLO1 250117Z 17027G34KT 24/09 A2967 RMK A01 T02410086  RH  037%=      5-min Rain = 0
KLO1 250118Z 16024G32KT 24/09 A2966 RMK A01 T02360086  RH  038%=      5-min Rain = 0
KLO1 250119Z 16024G31KT 24/08 A2967 RMK A01 T02390082  RH  037%=      5-min Rain = 0
KLO1 250120Z 16013G19KT 24/09 A2967 RMK A01 T02370090  RH  039%=      5-min Rain = 0
KLO1 250121Z 16020KT 23/10 A2966 RMK A01 T02320097  RH  042%=      5-min Rain = 0
KLO1 250122Z 16018KT 23/10 A2966 RMK A01 T02280099  RH  044%=      5-min Rain = 0
KLO1 250123Z 17016G24KT 23/10 A2966 RMK A01 T02260099  RH  044%=      5-min Rain = 0
KLO1 250124Z 17019G24KT 23/09 A2966 RMK A01 T02260094  RH  043%=      5-min Rain = 0
KLO1 250125Z 17019G26KT 23/10 A2966 RMK A01 T02270096  RH  043%=      5-min Rain = 0
KLO1 250126Z 17023KT 23/09 A2966 RMK A01 T02270092  RH  042%=      5-min Rain = 0
KLO1 250127Z 16016G22KT 23/08 A2966 RMK A01 T02330082  RH  038%=      5-min Rain = 0
KLO1 250128Z 13014KT 24/09 A2966 RMK A01 T02380086  RH  038%=      5-min Rain = 0
KLO1 250129Z 12018KT 24/09 A2966 RMK A01 T02360091  RH  040%=      5-min Rain = 0
KLO1 250130Z 12015KT 23/09 A2966 RMK A01 T02320092  RH  041%=      5-min Rain = 0
KLO1 250131Z 11015KT 23/09 A2966 RMK A01 T02300093  RH  042%=      5-min Rain = 0
KLO1 250132Z 11014KT 23/09 A2965 RMK A01 T02290090  RH  041%=      5-min Rain = 0
KLO1 250133Z 11018KT 23/09 A2965 RMK A01 T02290090  RH  041%=      5-min Rain = 0
KLO1 250134Z 11017KT 23/09 A2965 RMK A01 T02300086  RH  040%=      5-min Rain = 0
KLO1 250135Z 12014KT 23/09 A2965 RMK A01 T02320086  RH  039%=      5-min Rain = 0
KLO1 250136Z 12017G23KT 23/09 A2964 RMK A01 T02320089  RH  040%=      5-min Rain = 0
KLO1 250137Z 13023KT 23/09 A2964 RMK A01 T02290092  RH  042%=      5-min Rain = 0
KLO1 250138Z 13022KT 23/09 A2963 RMK A01 T02260094  RH  043%=      5-min Rain = 0
KLO1 250139Z 13020G25KT 22/10 A2963 RMK A01 T02240095  RH  044%=      5-min Rain = 0
KLO1 250140Z 13020KT 22/09 A2963 RMK A01 T02230094  RH  044%=      5-min Rain = 0
KLO1 250141Z 12020KT 22/09 A2964 RMK A01 T02230094  RH  044%=      5-min Rain = 0
KLO1 250142Z 11019KT 22/09 A2964 RMK A01 T02230092  RH  043%=      5-min Rain = 0
KLO1 250143Z 12017KT 22/09 A2964 RMK A01 T02230091  RH  043%=      5-min Rain = 0
KLO1 250144Z 12019G26KT 22/09 A2964 RMK A01 T02230090  RH  043%=      5-min Rain = 0
KLO1 250145Z 12020KT 22/09 A2964 RMK A01 T02240088  RH  042%=      5-min Rain = 0
KLO1 250146Z 11024KT 22/09 A2964 RMK A01 T02240088  RH  042%=      5-min Rain = 0
KLO1 250147Z 11023G28KT 22/09 A2964 RMK A01 T02240091  RH  043%=      5-min Rain = 0
KLO1 250148Z 11019KT 22/10 A2965 RMK A01 T02210096  RH  045%=      5-min Rain = 0
KLO1 250149Z 11018KT 22/10 A2965 RMK A01 T02180099  RH  047%=      5-min Rain = 0
KLO1 250150Z 11020KT 22/10 A2965 RMK A01 T02160100  RH  048%=      5-min Rain = 0
KLO1 250151Z 11020G25KT 21/10 A2965 RMK A01 T02140100  RH  048%=      5-min Rain = 0
KLO1 250152Z 12022KT 21/10 A2965 RMK A01 T02130100  RH  048%=      5-min Rain = 0
KLO1 250153Z 12019KT 21/10 A2965 RMK A01 T02130099  RH  048%=      5-min Rain = 0
KLO1 250154Z 12018KT 21/10 A2965 RMK A01 T02130099  RH  048%=      5-min Rain = 0
KLO1 250155Z 12018KT 21/10 A2965 RMK A01 T02130097  RH  048%=      5-min Rain = 0
KLO1 250156Z 12019KT 21/10 A2965 RMK A01 T02130095  RH  047%=      5-min Rain = 0
KLO1 250157Z 12016KT 21/10 A2965 RMK A01 T02140095  RH  046%=      5-min Rain = 0
KLO1 250158Z 13017G23KT 22/09 A2965 RMK A01 T02150094  RH  046%=      5-min Rain = 0
KLO1 250159Z 13014KT 22/09 A2965 RMK A01 T02150092  RH  045%=      5-min Rain = 0
KLO1 250200Z 13015KT 22/09 A2965 RMK A01 T02160091  RH  045%=      5-min Rain = 0
KLO1 250201Z 13015KT 22/09 A2965 RMK A01 T02170089  RH  044%=      5-min Rain = 0
KLO1 250202Z 13015KT 22/09 A2965 RMK A01 T02180088  RH  043%=      5-min Rain = 0
KLO1 250203Z 13014KT 22/09 A2964 RMK A01 T02190087  RH  043%=      5-min Rain = 0
KLO1 250204Z 13014KT 22/09 A2964 RMK A01 T02200086  RH  042%=      5-min Rain = 0
KLO1 250205Z 13013KT 22/08 A2964 RMK A01 T02210084  RH  042%=      5-min Rain = 0
KLO1 250206Z 12015KT 22/08 A2964 RMK A01 T02220083  RH  041%=      5-min Rain = 0
KLO1 250207Z 12014KT 22/08 A2964 RMK A01 T02230082  RH  040%=      5-min Rain = 0
KLO1 250208Z 12014KT 22/08 A2964 RMK A01 T02240081  RH  040%=      5-min Rain = 0
KLO1 250209Z 11014KT 23/08 A2964 RMK A01 T02250081  RH  040%=      5-min Rain = 0
KLO1 250210Z 12014KT 23/08 A2964 RMK A01 T02250080  RH  039%=      5-min Rain = 0
KLO1 250211Z 12015KT 23/08 A2964 RMK A01 T02250080  RH  039%=      5-min Rain = 0
KLO1 250212Z 12014KT 23/08 A2964 RMK A01 T02260079  RH  039%=      5-min Rain = 0
KLO1 250213Z 12013KT 23/08 A2964 RMK A01 T02260079  RH  039%=      5-min Rain = 0
KLO1 250214Z 12011KT 23/08 A2963 RMK A01 T02260080  RH  039%=      5-min Rain = 0
KLO1 250215Z 12012KT 23/08 A2963 RMK A01 T02250080  RH  039%=      5-min Rain = 0
KLO1 250216Z 12011KT 23/08 A2963 RMK A01 T02250080  RH  039%=      5-min Rain = 0
KLO1 250217Z 12011KT 23/08 A2963 RMK A01 T02250081  RH  040%=      5-min Rain = 0
KLO1 250218Z 12011KT 22/08 A2963 RMK A01 T02240080  RH  039%=      5-min Rain = 0
KLO1 250219Z 13010KT 22/08 A2963 RMK A01 T02240079  RH  039%=      5-min Rain = 0
KLO1 250220Z 13009KT 22/08 A2963 RMK A01 T02240080  RH  039%=      5-min Rain = 0
KLO1 250221Z 12009KT 22/08 A2963 RMK A01 T02240080  RH  040%=      5-min Rain = 0
KLO1 250222Z 12010KT 22/08 A2963 RMK A01 T02240080  RH  040%=      5-min Rain = 0
KLO1 250223Z 12010KT 22/08 A2963 RMK A01 T02240080  RH  039%=      5-min Rain = 0
KLO1 250224Z 12009KT 22/08 A2963 RMK A01 T02240079  RH  039%=      5-min Rain = 0
KLO1 250225Z 12011KT 22/08 A2963 RMK A01 T02240080  RH  040%=      5-min Rain = 0
KLO1 250226Z 12010KT 22/08 A2963 RMK A01 T02240080  RH  040%=      5-min Rain = 0
KLO1 250227Z 12009KT 22/08 A2963 RMK A01 T02240080  RH  040%=      5-min Rain = 0
KLO1 250228Z 11009KT 22/08 A2963 RMK A01 T02240080  RH  040%=      5-min Rain = 0
KLO1 250229Z 11008KT 22/08 A2963 RMK A01 T02230080  RH  040%=      5-min Rain = 0
KLO1 250230Z 11009KT 22/08 A2963 RMK A01 T02230080  RH  040%=      5-min Rain = 0
KLO1 250231Z 12009KT 22/08 A2963 RMK A01 T02230080  RH  040%=      5-min Rain = 0
KLO1 250232Z 12008KT 22/08 A2963 RMK A01 T02230080  RH  040%=      5-min Rain = 0
KLO1 250233Z 12008KT 22/08 A2963 RMK A01 T02230080  RH  040%=      5-min Rain = 0
KLO1 250234Z 12008KT 22/08 A2963 RMK A01 T02230080  RH  040%=      5-min Rain = 0
KLO1 250235Z 12009KT 22/08 A2963 RMK A01 T02230080  RH  040%=      5-min Rain = 0
KLO1 250236Z 12008KT 22/08 A2963 RMK A01 T02230080  RH  040%=      5-min Rain = 0
KLO1 250237Z 12008KT 22/08 A2963 RMK A01 T02230080  RH  040%=      5-min Rain = 0
KLO1 250238Z 12008KT 22/08 A2963 RMK A01 T02230080  RH  040%=      5-min Rain = 0
KLO1 250239Z 12007KT 22/08 A2963 RMK A01 T02230081  RH  040%=      5-min Rain = 0
KLO1 250240Z 12008KT 22/08 A2963 RMK A01 T02220080  RH  040%=      5-min Rain = 0
KLO1 250241Z 12008KT 22/08 A2963 RMK A01 T02220080  RH  040%=      5-min Rain = 0
KLO1 250242Z 12009KT 22/08 A2963 RMK A01 T02220080  RH  040%=      5-min Rain = 0
KLO1 250243Z 12009KT 22/08 A2963 RMK A01 T02220080  RH  040%=      5-min Rain = 0
KLO1 250244Z 12007KT 22/08 A2963 RMK A01 T02220079  RH  040%=      5-min Rain = 0
KLO1 250245Z 12007KT 22/08 A2963 RMK A01 T02220079  RH  040%=      5-min Rain = 0
KLO1 250246Z 12008KT 22/08 A2962 RMK A01 T02220079  RH  040%=      5-min Rain = 0
KLO1 250247Z 11008KT 22/08 A2962 RMK A01 T02230078  RH  039%=      5-min Rain = 0
KLO1 250248Z 11008KT 22/08 A2962 RMK A01 T02230078  RH  039%=      5-min Rain = 0
KLO1 250249Z 11008KT 22/08 A2962 RMK A01 T02230078  RH  039%=      5-min Rain = 0
KLO1 250250Z 11008KT 22/08 A2962 RMK A01 T02230078  RH  039%=      5-min Rain = 0
KLO1 250251Z 12006KT 22/08 A2962 RMK A01 T02230078  RH  039%=      5-min Rain = 0
KLO1 250252Z 13006KT 22/08 A2962 RMK A01 T02230078  RH  039%=      5-min Rain = 0
KLO1 250253Z 14005KT 22/08 A2962 RMK A01 T02230077  RH  039%=      5-min Rain = 0
KLO1 250254Z 14006KT 22/08 A2963 RMK A01 T02230077  RH  039%=      5-min Rain = 0
KLO1 250255Z 14005KT 22/08 A2963 RMK A01 T02230077  RH  039%=      5-min Rain = 0
KLO1 250256Z 14005KT 22/08 A2963 RMK A01 T02230078  RH  039%=      5-min Rain = 0
KLO1 250257Z 13005KT 22/08 A2963 RMK A01 T02230078  RH  039%=      5-min Rain = 0
KLO1 250258Z 13006KT 22/08 A2962 RMK A01 T02220078  RH  040%=      5-min Rain = 0
KLO1 250259Z 12007KT 22/08 A2962 RMK A01 T02220078  RH  040%=      5-min Rain = 0
KLO1 250300Z 12007KT 22/08 A2962 RMK A01 T02220078  RH  040%=      5-min Rain = 0
KLO1 250301Z 12007KT 22/08 A2962 RMK A01 T02220078  RH  040%=      5-min Rain = 0
KLO1 250302Z 12006KT 22/08 A2962 RMK A01 T02220078  RH  040%=      5-min Rain = 0
KLO1 250303Z 12005KT 22/08 A2962 RMK A01 T02220079  RH  040%=      5-min Rain = 0
KLO1 250304Z 13005KT 22/08 A2962 RMK A01 T02220079  RH  040%=      5-min Rain = 0
KLO1 250305Z 14004KT 22/08 A2962 RMK A01 T02220079  RH  040%=      5-min Rain = 0
KLO1 250306Z 14003KT 22/08 A2962 RMK A01 T02210079  RH  040%=      5-min Rain = 0
KLO1 250307Z 14003KT 22/08 A2963 RMK A01 T02210079  RH  040%=      5-min Rain = 0
KLO1 250308Z 13003KT 22/08 A2963 RMK A01 T02210079  RH  040%=      5-min Rain = 0
KLO1 250309Z 11004KT 22/08 A2963 RMK A01 T02210080  RH  040%=      5-min Rain = 0
KLO1 250310Z 11004KT 22/08 A2963 RMK A01 T02200080  RH  040%=      5-min Rain = 0
KLO1 250311Z 11004KT 22/08 A2963 RMK A01 T02200080  RH  040%=      5-min Rain = 0
KLO1 250312Z 10005KT 22/08 A2963 RMK A01 T02200080  RH  041%=      5-min Rain = 0
KLO1 250313Z 10005KT 22/08 A2963 RMK A01 T02200081  RH  041%=      5-min Rain = 0
KLO1 250314Z 09005KT 22/08 A2963 RMK A01 T02200081  RH  041%=      5-min Rain = 0
KLO1 250315Z 09004KT 22/08 A2963 RMK A01 T02190082  RH  041%=      5-min Rain = 0
KLO1 250316Z 08003KT 22/08 A2963 RMK A01 T02180083  RH  042%=      5-min Rain = 0
KLO1 250317Z 07003KT 22/08 A2963 RMK A01 T02180082  RH  042%=      5-min Rain = 0
KLO1 250318Z 07002KT 22/08 A2963 RMK A01 T02170083  RH  042%=      5-min Rain = 0
KLO1 250319Z 05002KT 22/08 A2963 RMK A01 T02170084  RH  042%=      5-min Rain = 0
KLO1 250320Z 04003KT 22/09 A2963 RMK A01 T02160085  RH  043%=      5-min Rain = 0
KLO1 250321Z 04003KT 22/09 A2963 RMK A01 T02150086  RH  044%=      5-min Rain = 0
KLO1 250322Z 02004KT 21/09 A2963 RMK A01 T02130086  RH  044%=      5-min Rain = 0
KLO1 250323Z 01004KT 21/09 A2964 RMK A01 T02120086  RH  044%=      5-min Rain = 0
KLO1 250324Z 01004KT 21/09 A2964 RMK A01 T02110085  RH  044%=      5-min Rain = 0
KLO1 250325Z 02004KT 21/09 A2964 RMK A01 T02120085  RH  044%=      5-min Rain = 0
KLO1 250326Z 03004KT 21/09 A2964 RMK A01 T02120086  RH  044%=      5-min Rain = 0
KLO1 250327Z 05004KT 21/09 A2965 RMK A01 T02120086  RH  044%=      5-min Rain = 0
KLO1 250328Z 06003KT 21/09 A2965 RMK A01 T02120088  RH  045%=      5-min Rain = 0
KLO1 250329Z 07003KT 21/09 A2965 RMK A01 T02110088  RH  045%=      5-min Rain = 0
KLO1 250330Z 07003KT 21/09 A2965 RMK A01 T02110086  RH  045%=      5-min Rain = 0
KLO1 250331Z 07004KT 21/09 A2966 RMK A01 T02110087  RH  045%=      5-min Rain = 0
KLO1 250332Z 07005KT 21/09 A2966 RMK A01 T02110087  RH  045%=      5-min Rain = 0
KLO1 250333Z 06006KT 21/09 A2966 RMK A01 T02120086  RH  044%=      5-min Rain = 0
KLO1 250334Z 06006KT 21/09 A2967 RMK A01 T02120087  RH  045%=      5-min Rain = 0
KLO1 250335Z 05006KT 21/09 A2967 RMK A01 T02120087  RH  045%=      5-min Rain = 0
KLO1 250336Z 05006KT 21/09 A2967 RMK A01 T02120086  RH  044%=      5-min Rain = 0
KLO1 250337Z 05006KT 21/09 A2968 RMK A01 T02130086  RH  044%=      5-min Rain = 0
KLO1 250338Z 04005KT 21/09 A2968 RMK A01 T02140087  RH  044%=      5-min Rain = 0
KLO1 250339Z 04004KT 21/09 A2968 RMK A01 T02140087  RH  044%=      5-min Rain = 0
KLO1 250340Z 03004KT 21/09 A2968 RMK A01 T02140087  RH  044%=      5-min Rain = 0
KLO1 250341Z 04005KT 21/09 A2969 RMK A01 T02140088  RH  044%=      5-min Rain = 0
KLO1 250342Z 03005KT 21/09 A2969 RMK A01 T02140088  RH  045%=      5-min Rain = 0
KLO1 250343Z 02006KT 21/09 A2969 RMK A01 T02130089  RH  045%=      5-min Rain = 0
KLO1 250344Z 02006KT 21/09 A2969 RMK A01 T02130089  RH  045%=      5-min Rain = 0
KLO1 250345Z 01004KT 21/09 A297 RMK A01 T02130089  RH  045%=      5-min Rain = 0
KLO1 250346Z 01003KT 21/09 A297 RMK A01 T02130089  RH  045%=      5-min Rain = 0
KLO1 250347Z 00003KT 21/09 A297 RMK A01 T02130087  RH  044%=      5-min Rain = 0
KLO1 250348Z 34003KT 21/09 A297 RMK A01 T02140088  RH  044%=      5-min Rain = 0
KLO1 250349Z 32003KT 21/09 A2971 RMK A01 T02140089  RH  044%=      5-min Rain = 0
KLO1 250350Z 31004KT 21/09 A2971 RMK A01 T02140090  RH  045%=      5-min Rain = 0
KLO1 250351Z 30005KT 21/09 A2971 RMK A01 T02140091  RH  045%=      5-min Rain = 0
KLO1 250352Z 29006KT 21/09 A2972 RMK A01 T02140092  RH  046%=      5-min Rain = 0
KLO1 250353Z 29007KT 21/09 A2972 RMK A01 T02140093  RH  046%=      5-min Rain = 0
KLO1 250354Z 30007KT 21/09 A2972 RMK A01 T02140092  RH  046%=      5-min Rain = 0
KLO1 250355Z 30008KT 21/09 A2973 RMK A01 T02140090  RH  045%=      5-min Rain = 0
KLO1 250356Z 30008KT 21/09 A2973 RMK A01 T02140089  RH  045%=      5-min Rain = 0
KLO1 250357Z 30007KT 21/09 A2974 RMK A01 T02140088  RH  044%=      5-min Rain = 0
KLO1 250358Z 30007KT 21/09 A2974 RMK A01 T02140087  RH  044%=      5-min Rain = 0
KLO1 250359Z 29007KT 22/09 A2974 RMK A01 T02150088  RH  044%=      5-min Rain = 0
KLO1 250400Z 28007KT 22/09 A2974 RMK A01 T02150089  RH  044%=      5-min Rain = 0
KLO1 250401Z 28007KT 21/09 A2974 RMK A01 T02140092  RH  046%=      5-min Rain = 0
KLO1 250402Z 29007KT 21/09 A2975 RMK A01 T02120094  RH  047%=      5-min Rain = 0
KLO1 250403Z 29006KT 21/10 A2975 RMK A01 T02110095  RH  047%=      5-min Rain = 0
KLO1 250404Z 29006KT 21/10 A2975 RMK A01 T02100096  RH  048%=      5-min Rain = 0
KLO1 250405Z 29005KT 21/10 A2976 RMK A01 T02100098  RH  049%=      5-min Rain = 0
KLO1 250406Z 30004KT 21/10 A2976 RMK A01 T02090099  RH  049%=      5-min Rain = 0
KLO1 250407Z 30004KT 21/10 A2976 RMK A01 T02090100  RH  050%=      5-min Rain = 0
KLO1 250408Z 29004KT 21/10 A2976 RMK A01 T02080100  RH  050%=      5-min Rain = 0
KLO1 250409Z 29004KT 21/10 A2977 RMK A01 T02080101  RH  050%=      5-min Rain = 0
KLO1 250410Z 28003KT 21/10 A2977 RMK A01 T02080101  RH  050%=      5-min Rain = 0
KLO1 250411Z 28004KT 21/10 A2977 RMK A01 T02080101  RH  050%=      5-min Rain = 0
KLO1 250412Z 28004KT 21/10 A2977 RMK A01 T02080101  RH  050%=      5-min Rain = 0
KLO1 250413Z 28004KT 21/10 A2977 RMK A01 T02070101  RH  051%=      5-min Rain = 0
KLO1 250414Z 28004KT 21/10 A2977 RMK A01 T02060101  RH  051%=      5-min Rain = 0
KLO1 250415Z 29004KT 21/10 A2978 RMK A01 T02060102  RH  051%=      5-min Rain = 0
KLO1 250416Z 31004KT 21/10 A2978 RMK A01 T02060103  RH  052%=      5-min Rain = 0
KLO1 250417Z 32004KT 21/10 A2978 RMK A01 T02050103  RH  052%=      5-min Rain = 0
KLO1 250418Z 34005KT 21/10 A2979 RMK A01 T02050104  RH  052%=      5-min Rain = 0
KLO1 250419Z 34005KT 21/10 A2979 RMK A01 T02050104  RH  052%=      5-min Rain = 0
KLO1 250420Z 34004KT 21/10 A2979 RMK A01 T02050104  RH  052%=      5-min Rain = 0
KLO1 250421Z 35004KT 21/10 A2979 RMK A01 T02050104  RH  052%=      5-min Rain = 0
KLO1 250422Z 36003KT 21/10 A298 RMK A01 T02050103  RH  052%=      5-min Rain = 0
KLO1 250423Z 02004KT 21/10 A298 RMK A01 T02060102  RH  051%=      5-min Rain = 0
KLO1 250424Z 02008KT 21/10 A298 RMK A01 T02060104  RH  052%=      5-min Rain = 0
KLO1 250425Z 07012G17KT 21/10 A298 RMK A01 T02060100  RH  051%=      5-min Rain = 0
KLO1 250426Z 07012G18KT 21/10 A298 RMK A01 T02080098  RH  049%=      5-min Rain = 0
KLO1 250427Z 06019KT 21/10 A2981 RMK A01 T02100098  RH  049%=      5-min Rain = 0
KLO1 250428Z 07017KT 21/10 A2981 RMK A01 T02110100  RH  049%=      5-min Rain = 0
KLO1 250429Z 07014KT 21/10 A2981 RMK A01 T02120100  RH  049%=      5-min Rain = 0
KLO1 250430Z 08014KT 21/10 A2982 RMK A01 T02110100  RH  049%=      5-min Rain = 0
KLO1 250431Z 08013KT 21/10 A2982 RMK A01 T02110101  RH  049%=      5-min Rain = 0
KLO1 250432Z 07015KT 21/10 A2982 RMK A01 T02110100  RH  049%=      5-min Rain = 0
KLO1 250433Z 08011G16KT 21/10 A2982 RMK A01 T02120100  RH  049%=      5-min Rain = 0
KLO1 250434Z 09014KT 21/10 A2982 RMK A01 T02120102  RH  049%=      5-min Rain = 0
KLO1 250435Z 09015KT 21/10 A2982 RMK A01 T02120103  RH  050%=      5-min Rain = 0
KLO1 250436Z 08015KT 21/10 A2982 RMK A01 T02120104  RH  050%=      5-min Rain = 0
KLO1 250437Z 07014KT 21/11 A2982 RMK A01 T02100106  RH  051%=      5-min Rain = 0
KLO1 250438Z 08011KT 21/11 A2982 RMK A01 T02090106  RH  052%=      5-min Rain = 0
KLO1 250439Z 09014G19KT 21/11 A2982 RMK A01 T02090106  RH  052%=      5-min Rain = 0
KLO1 250440Z 08015KT 21/11 A2982 RMK A01 T02090107  RH  052%=      5-min Rain = 0
KLO1 250441Z 08011KT 21/11 A2982 RMK A01 T02080108  RH  052%=      5-min Rain = 0
KLO1 250442Z 09014KT 21/11 A2982 RMK A01 T02080109  RH  053%=      5-min Rain = 0
KLO1 250443Z 09015KT 21/11 A2983 RMK A01 T02070110  RH  054%=      5-min Rain = 0
KLO1 250444Z 09013KT 21/11 A2983 RMK A01 T02070111  RH  054%=      5-min Rain = 0
KLO1 250445Z 09013KT 21/11 A2983 RMK A01 T02060112  RH  055%=      5-min Rain = 0
KLO1 250446Z 08013KT 21/11 A2983 RMK A01 T02060113  RH  055%=      5-min Rain = 0
KLO1 250447Z 08017KT 21/12 A2983 RMK A01 T02060115  RH  056%=      5-min Rain = 0
KLO1 250448Z 07014KT 21/12 A2983 RMK A01 T02050117  RH  057%=      5-min Rain = 0
KLO1 250449Z 08015G20KT 20/12 A2983 RMK A01 T02040117  RH  057%=      5-min Rain = 0
KLO1 250450Z 08015KT 20/12 A2983 RMK A01 T02040119  RH  058%=      5-min Rain = 0
KLO1 250451Z 07015KT 20/12 A2983 RMK A01 T02030120  RH  059%=      5-min Rain = 0
KLO1 250452Z 07013KT 20/12 A2982 RMK A01 T02030121  RH  059%=      5-min Rain = 0
KLO1 250453Z 08011KT 20/12 A2982 RMK A01 T02030121  RH  059%=      5-min Rain = 0
KLO1 250454Z 08012KT 20/12 A2982 RMK A01 T02020121  RH  060%=      5-min Rain = 0
KLO1 250455Z 08010KT 20/12 A2982 RMK A01 T02020122  RH  060%=      5-min Rain = 0
KLO1 250456Z 08010G15KT 20/12 A2982 RMK A01 T02020123  RH  060%=      5-min Rain = 0
KLO1 250457Z 08012KT 20/12 A2982 RMK A01 T02020123  RH  060%=      5-min Rain = 0
KLO1 250458Z 09014KT 20/12 A2982 RMK A01 T02020122  RH  060%=      5-min Rain = 0
KLO1 250459Z 09011KT 20/12 A2982 RMK A01 T02020122  RH  060%=      5-min Rain = 0

Page generated in 0.1359 seconds.